JAL51A RJTT-YSSY
Flight info
| Callsign | JAL51A |
|---|---|
| Flight time | 8h 59m |
| Altitude | 33000 |
| Route | VAMOS4 VAMOS DCT XAC B586 SABRI/N0493F340 B586 CADDY/N0494F330 B586 UKATA/N0492F340 DCT 28N140E 25N140E 20N140E 15N140E 10N140E 05N140E/N0494F350 DCT FACED A216 APUKA/N0488F370 A216 CS Y177 AKROM Y153 ROKUU H652 BOREE BOREE4A |
| Aircraft | B77W/H-SDE1E2E3FGHIJ2J3J4J5M1RWXY/LB1D1 |
Departure
| Time | 2026-05-07 11:25 |
|---|---|
| Airport | Tokyo Haneda International Airport (RJTT) |
Arrival
| Time | 2026-05-07 20:24 |
|---|---|
| Airport | Sydney Kingsford Smith International Airport (YSSY) |
| Time | Latitude | Longitude | Altitude | Speed | Heading |
|---|---|---|---|---|---|
| 2026-05-07 10:59 | 35.54764 | 139.76892 | 28 ft | 0 kts | 240° |
| 2026-05-07 11:07 | 35.54764 | 139.76893 | 28 ft | 1 kts | 240° |
| 2026-05-07 11:07 | 35.54773 | 139.76916 | 28 ft | 4 kts | 256° |
| 2026-05-07 11:08 | 35.54776 | 139.76946 | 27 ft | 4 kts | 279° |
| 2026-05-07 11:08 | 35.54769 | 139.76977 | 26 ft | 4 kts | 297° |
| 2026-05-07 11:08 | 35.54755 | 139.77004 | 25 ft | 4 kts | 308° |
| 2026-05-07 11:08 | 35.54737 | 139.77029 | 25 ft | 4 kts | 316° |
| 2026-05-07 11:09 | 35.54717 | 139.77051 | 26 ft | 4 kts | 321° |
| 2026-05-07 11:09 | 35.54696 | 139.77071 | 26 ft | 4 kts | 325° |
| 2026-05-07 11:09 | 35.54673 | 139.77089 | 27 ft | 4 kts | 328° |
| 2026-05-07 11:09 | 35.54650 | 139.77107 | 26 ft | 3 kts | 328° |
| 2026-05-07 11:10 | 35.54646 | 139.77110 | 26 ft | 0 kts | 327° |
| 2026-05-07 11:14 | 35.54654 | 139.77104 | 26 ft | 4 kts | 328° |
| 2026-05-07 11:14 | 35.54685 | 139.77081 | 26 ft | 7 kts | 331° |
| 2026-05-07 11:15 | 35.54730 | 139.77090 | 27 ft | 8 kts | 37° |
| 2026-05-07 11:15 | 35.54757 | 139.77146 | 28 ft | 8 kts | 63° |
| 2026-05-07 11:15 | 35.54783 | 139.77204 | 28 ft | 8 kts | 60° |
| 2026-05-07 11:15 | 35.54810 | 139.77260 | 28 ft | 8 kts | 60° |
| 2026-05-07 11:16 | 35.54847 | 139.77305 | 28 ft | 8 kts | 22° |
| 2026-05-07 11:16 | 35.54900 | 139.77298 | 28 ft | 8 kts | 342° |
| 2026-05-07 11:16 | 35.54954 | 139.77263 | 28 ft | 10 kts | 331° |
| 2026-05-07 11:16 | 35.55019 | 139.77218 | 28 ft | 12 kts | 329° |
| 2026-05-07 11:17 | 35.55097 | 139.77163 | 28 ft | 14 kts | 330° |
| 2026-05-07 11:17 | 35.55186 | 139.77099 | 27 ft | 15 kts | 329° |
| 2026-05-07 11:17 | 35.55276 | 139.77035 | 27 ft | 15 kts | 330° |
| 2026-05-07 11:17 | 35.55365 | 139.76972 | 27 ft | 15 kts | 330° |
| 2026-05-07 11:18 | 35.55456 | 139.76914 | 27 ft | 15 kts | 342° |
| 2026-05-07 11:18 | 35.55551 | 139.76953 | 27 ft | 15 kts | 34° |
| 2026-05-07 11:18 | 35.55636 | 139.77026 | 27 ft | 15 kts | 36° |
| 2026-05-07 11:18 | 35.55721 | 139.77100 | 27 ft | 15 kts | 33° |
| 2026-05-07 11:19 | 35.55806 | 139.77172 | 27 ft | 15 kts | 34° |
| 2026-05-07 11:19 | 35.55891 | 139.77244 | 27 ft | 15 kts | 36° |
| 2026-05-07 11:19 | 35.55953 | 139.77345 | 27 ft | 15 kts | 59° |
| 2026-05-07 11:19 | 35.56006 | 139.77455 | 27 ft | 15 kts | 59° |
| 2026-05-07 11:20 | 35.56058 | 139.77565 | 28 ft | 15 kts | 60° |
| 2026-05-07 11:20 | 35.56110 | 139.77675 | 28 ft | 15 kts | 60° |
| 2026-05-07 11:20 | 35.56162 | 139.77786 | 27 ft | 15 kts | 64° |
| 2026-05-07 11:20 | 35.56213 | 139.77896 | 27 ft | 15 kts | 55° |
| 2026-05-07 11:21 | 35.56266 | 139.78005 | 27 ft | 15 kts | 66° |
| 2026-05-07 11:21 | 35.56319 | 139.78114 | 27 ft | 15 kts | 59° |
| 2026-05-07 11:21 | 35.56372 | 139.78224 | 27 ft | 15 kts | 60° |
| 2026-05-07 11:21 | 35.56423 | 139.78335 | 27 ft | 14 kts | 60° |
| 2026-05-07 11:22 | 35.56466 | 139.78425 | 27 ft | 11 kts | 59° |
| 2026-05-07 11:22 | 35.56501 | 139.78498 | 27 ft | 8 kts | 59° |
| 2026-05-07 11:22 | 35.56518 | 139.78532 | 27 ft | 0 kts | 60° |
| 2026-05-07 11:23 | 35.56523 | 139.78543 | 28 ft | 8 kts | 60° |
| 2026-05-07 11:23 | 35.56565 | 139.78636 | 28 ft | 9 kts | 63° |
| 2026-05-07 11:23 | 35.56531 | 139.78700 | 28 ft | 10 kts | 149° |
| 2026-05-07 11:24 | 35.56463 | 139.78748 | 28 ft | 32 kts | 150° |
| 2026-05-07 11:24 | 35.56051 | 139.79039 | 29 ft | 103 kts | 149° |
| 2026-05-07 11:24 | 35.55243 | 139.79608 | 29 ft | 162 kts | 150° |
| 2026-05-07 11:24 | 35.54149 | 139.80380 | 213 ft | 189 kts | 153° |
| 2026-05-07 11:25 | 35.53000 | 139.81225 | 680 ft | 191 kts | 151° |
| 2026-05-07 11:25 | 35.51843 | 139.82072 | 1172 ft | 194 kts | 154° |
| 2026-05-07 11:25 | 35.50654 | 139.82883 | 1694 ft | 200 kts | 155° |
| 2026-05-07 11:25 | 35.49412 | 139.83739 | 1952 ft | 217 kts | 154° |
| 2026-05-07 11:26 | 35.48051 | 139.84705 | 2254 ft | 232 kts | 153° |
| 2026-05-07 11:26 | 35.46635 | 139.85725 | 2716 ft | 243 kts | 153° |
| 2026-05-07 11:26 | 35.45097 | 139.86737 | 3104 ft | 249 kts | 164° |
| 2026-05-07 11:26 | 35.43390 | 139.86887 | 3478 ft | 253 kts | 199° |
| 2026-05-07 11:27 | 35.41825 | 139.86100 | 4373 ft | 236 kts | 204° |
| 2026-05-07 11:27 | 35.40264 | 139.85340 | 4923 ft | 246 kts | 202° |
| 2026-05-07 11:27 | 35.38633 | 139.84584 | 5442 ft | 254 kts | 202° |
| 2026-05-07 11:27 | 35.36967 | 139.83820 | 6074 ft | 257 kts | 202° |
| 2026-05-07 11:28 | 35.35325 | 139.82926 | 6718 ft | 258 kts | 209° |
| 2026-05-07 11:28 | 35.33743 | 139.81894 | 7344 ft | 259 kts | 211° |
| 2026-05-07 11:28 | 35.32128 | 139.80810 | 7979 ft | 262 kts | 211° |
| 2026-05-07 11:28 | 35.31259 | 139.80228 | 8317 ft | 263 kts | 212° |
| 2026-05-07 11:29 | 35.29022 | 139.78737 | 9208 ft | 265 kts | 212° |
| 2026-05-07 11:29 | 35.27375 | 139.77648 | 9845 ft | 268 kts | 212° |
| 2026-05-07 11:29 | 35.25760 | 139.76585 | 10341 ft | 273 kts | 212° |
| 2026-05-07 11:29 | 35.24055 | 139.75464 | 10516 ft | 293 kts | 212° |
| 2026-05-07 11:30 | 35.22169 | 139.74227 | 10678 ft | 314 kts | 211° |
| 2026-05-07 11:30 | 35.20175 | 139.72925 | 10842 ft | 335 kts | 211° |
| 2026-05-07 11:30 | 35.18067 | 139.71553 | 11173 ft | 350 kts | 211° |
| 2026-05-07 11:30 | 35.15912 | 139.70158 | 11730 ft | 358 kts | 211° |
| 2026-05-07 11:31 | 35.14414 | 139.69190 | 12215 ft | 361 kts | 211° |
| 2026-05-07 11:31 | 35.12187 | 139.67752 | 13010 ft | 364 kts | 211° |
| 2026-05-07 11:31 | 35.09908 | 139.66282 | 13777 ft | 368 kts | 211° |
| 2026-05-07 11:31 | 35.07607 | 139.64797 | 14451 ft | 373 kts | 211° |
| 2026-05-07 11:32 | 35.03000 | 139.61824 | 15793 ft | 381 kts | 211° |
| 2026-05-07 11:32 | 35.00635 | 139.60300 | 16488 ft | 384 kts | 211° |
| 2026-05-07 11:32 | 34.98249 | 139.58762 | 17161 ft | 388 kts | 211° |
| 2026-05-07 11:33 | 34.95847 | 139.57215 | 17828 ft | 392 kts | 211° |
| 2026-05-07 11:33 | 34.93419 | 139.55652 | 18450 ft | 395 kts | 211° |
| 2026-05-07 11:33 | 34.90975 | 139.54081 | 19061 ft | 398 kts | 211° |
| 2026-05-07 11:33 | 34.88580 | 139.52542 | 19658 ft | 399 kts | 211° |
| 2026-05-07 11:34 | 34.86065 | 139.50927 | 20269 ft | 402 kts | 211° |
| 2026-05-07 11:34 | 34.83574 | 139.49328 | 20851 ft | 404 kts | 211° |
| 2026-05-07 11:34 | 34.81070 | 139.47721 | 21429 ft | 407 kts | 210° |
| 2026-05-07 11:34 | 34.78549 | 139.46105 | 21951 ft | 411 kts | 210° |
| 2026-05-07 11:35 | 34.76004 | 139.44474 | 22487 ft | 414 kts | 210° |
| 2026-05-07 11:35 | 34.73367 | 139.43042 | 22864 ft | 421 kts | 201° |
| 2026-05-07 11:35 | 34.70469 | 139.42254 | 23321 ft | 430 kts | 192° |
| 2026-05-07 11:35 | 34.67507 | 139.41986 | 23786 ft | 436 kts | 184° |
| 2026-05-07 11:36 | 34.64450 | 139.42321 | 24211 ft | 443 kts | 177° |
| 2026-05-07 11:36 | 34.61388 | 139.42848 | 24642 ft | 445 kts | 176° |
| 2026-05-07 11:36 | 34.58316 | 139.43398 | 25051 ft | 448 kts | 176° |
| 2026-05-07 11:36 | 34.55214 | 139.43946 | 25448 ft | 451 kts | 177° |
| 2026-05-07 11:37 | 34.52097 | 139.44479 | 25852 ft | 453 kts | 177° |
| 2026-05-07 11:37 | 34.48924 | 139.45007 | 26264 ft | 456 kts | 177° |
| 2026-05-07 11:37 | 34.45775 | 139.45520 | 26657 ft | 458 kts | 177° |
| 2026-05-07 11:37 | 34.42603 | 139.46032 | 27044 ft | 460 kts | 178° |
| 2026-05-07 11:38 | 34.39416 | 139.46544 | 27427 ft | 462 kts | 178° |
| 2026-05-07 11:38 | 34.36216 | 139.47058 | 27801 ft | 465 kts | 177° |
| 2026-05-07 11:38 | 34.32999 | 139.47576 | 28171 ft | 467 kts | 177° |
| 2026-05-07 11:38 | 34.29809 | 139.48089 | 28491 ft | 469 kts | 177° |
| 2026-05-07 11:39 | 34.26557 | 139.48613 | 28827 ft | 471 kts | 177° |
| 2026-05-07 11:39 | 34.23294 | 139.49138 | 29159 ft | 473 kts | 177° |
| 2026-05-07 11:39 | 34.20025 | 139.49663 | 29474 ft | 475 kts | 177° |
| 2026-05-07 11:39 | 34.16732 | 139.50189 | 29802 ft | 476 kts | 177° |
| 2026-05-07 11:40 | 34.13454 | 139.50712 | 30188 ft | 475 kts | 177° |
| 2026-05-07 11:40 | 34.10181 | 139.51233 | 30572 ft | 473 kts | 177° |
| 2026-05-07 11:40 | 34.06924 | 139.51752 | 30934 ft | 472 kts | 177° |
| 2026-05-07 11:40 | 34.03668 | 139.52269 | 31264 ft | 471 kts | 177° |
| 2026-05-07 11:41 | 34.00453 | 139.52778 | 31567 ft | 471 kts | 177° |
| 2026-05-07 11:41 | 33.97190 | 139.53295 | 31874 ft | 471 kts | 177° |
| 2026-05-07 11:41 | 33.93905 | 139.53816 | 32188 ft | 470 kts | 177° |
| 2026-05-07 11:41 | 33.90699 | 139.54324 | 32476 ft | 470 kts | 177° |
| 2026-05-07 11:42 | 33.87450 | 139.54838 | 32773 ft | 470 kts | 177° |
| 2026-05-07 11:42 | 33.84207 | 139.55351 | 32902 ft | 473 kts | 177° |
| 2026-05-07 11:42 | 33.80929 | 139.55867 | 32939 ft | 474 kts | 177° |
| 2026-05-07 11:43 | 33.74357 | 139.56908 | 32967 ft | 471 kts | 177° |
| 2026-05-07 11:43 | 33.67874 | 139.57931 | 32977 ft | 469 kts | 177° |
| 2026-05-07 11:44 | 33.61400 | 139.58950 | 32982 ft | 469 kts | 177° |
| 2026-05-07 11:44 | 33.54905 | 139.59970 | 32987 ft | 470 kts | 177° |
| 2026-05-07 11:45 | 33.48443 | 139.60983 | 32987 ft | 472 kts | 177° |
| 2026-05-07 11:45 | 33.41961 | 139.61999 | 32990 ft | 474 kts | 176° |
| 2026-05-07 11:46 | 33.35415 | 139.63024 | 32994 ft | 475 kts | 176° |
| 2026-05-07 11:46 | 33.28852 | 139.64050 | 32994 ft | 476 kts | 176° |
| 2026-05-07 11:47 | 33.22282 | 139.65075 | 32994 ft | 476 kts | 176° |
| 2026-05-07 11:47 | 33.15700 | 139.66101 | 33003 ft | 476 kts | 176° |
| 2026-05-07 11:48 | 33.09129 | 139.67123 | 32999 ft | 476 kts | 176° |
| 2026-05-07 11:48 | 33.02595 | 139.68138 | 33005 ft | 476 kts | 176° |
| 2026-05-07 11:49 | 32.96030 | 139.69156 | 33007 ft | 476 kts | 176° |
| 2026-05-07 11:49 | 32.89416 | 139.70181 | 33012 ft | 476 kts | 176° |
| 2026-05-07 11:50 | 32.82890 | 139.71190 | 33012 ft | 476 kts | 176° |
| 2026-05-07 11:50 | 32.76299 | 139.72207 | 33015 ft | 477 kts | 176° |
| 2026-05-07 11:51 | 32.69679 | 139.73212 | 33018 ft | 477 kts | 176° |
| 2026-05-07 11:51 | 32.63121 | 139.74201 | 33021 ft | 477 kts | 176° |
| 2026-05-07 11:52 | 32.56531 | 139.75195 | 33022 ft | 478 kts | 176° |
| 2026-05-07 11:52 | 32.49924 | 139.76192 | 33027 ft | 478 kts | 176° |
| 2026-05-07 11:53 | 32.43327 | 139.77185 | 33037 ft | 478 kts | 176° |
| 2026-05-07 11:53 | 32.36720 | 139.78189 | 33025 ft | 478 kts | 175° |
| 2026-05-07 11:54 | 32.30111 | 139.79196 | 33033 ft | 479 kts | 175° |
| 2026-05-07 11:54 | 32.23505 | 139.80201 | 33034 ft | 479 kts | 175° |
| 2026-05-07 11:55 | 32.16884 | 139.81206 | 33038 ft | 480 kts | 175° |
| 2026-05-07 11:55 | 32.10247 | 139.82211 | 33039 ft | 480 kts | 175° |
| 2026-05-07 11:56 | 32.03607 | 139.83215 | 33041 ft | 481 kts | 175° |
| 2026-05-07 11:56 | 31.96961 | 139.84219 | 33045 ft | 481 kts | 175° |
| 2026-05-07 11:57 | 31.90355 | 139.85215 | 33042 ft | 481 kts | 175° |
| 2026-05-07 11:57 | 31.83712 | 139.86215 | 33048 ft | 481 kts | 175° |
| 2026-05-07 11:58 | 31.77060 | 139.87216 | 33048 ft | 481 kts | 175° |
| 2026-05-07 11:58 | 31.70407 | 139.88214 | 33052 ft | 482 kts | 175° |
| 2026-05-07 11:59 | 31.63758 | 139.89211 | 33049 ft | 482 kts | 175° |
| 2026-05-07 11:59 | 31.57129 | 139.90204 | 33052 ft | 482 kts | 175° |
| 2026-05-07 12:00 | 31.50468 | 139.91200 | 33049 ft | 482 kts | 175° |
| 2026-05-07 12:00 | 31.43802 | 139.92195 | 33059 ft | 482 kts | 175° |
| 2026-05-07 12:01 | 31.37150 | 139.93187 | 33057 ft | 482 kts | 175° |
| 2026-05-07 12:01 | 31.30501 | 139.94177 | 33052 ft | 481 kts | 175° |
| 2026-05-07 12:02 | 31.23852 | 139.95165 | 33053 ft | 481 kts | 175° |
| 2026-05-07 12:02 | 31.18338 | 139.95984 | 33054 ft | 480 kts | 175° |
| 2026-05-07 12:03 | 31.11708 | 139.96967 | 33057 ft | 480 kts | 175° |
| 2026-05-07 12:03 | 31.05080 | 139.97949 | 33058 ft | 479 kts | 175° |
| 2026-05-07 12:04 | 30.98520 | 139.99184 | 33061 ft | 481 kts | 168° |
| 2026-05-07 12:04 | 30.92113 | 140.01478 | 33060 ft | 482 kts | 165° |
| 2026-05-07 12:05 | 30.85698 | 140.03863 | 33064 ft | 481 kts | 165° |
| 2026-05-07 12:05 | 30.79306 | 140.06200 | 33074 ft | 481 kts | 165° |
| 2026-05-07 12:06 | 30.72910 | 140.08512 | 33065 ft | 481 kts | 166° |
| 2026-05-07 12:06 | 30.66508 | 140.10820 | 33068 ft | 481 kts | 166° |
| 2026-05-07 12:07 | 30.60153 | 140.13109 | 33068 ft | 481 kts | 166° |
| 2026-05-07 12:07 | 30.53747 | 140.15414 | 33069 ft | 480 kts | 166° |
| 2026-05-07 12:08 | 30.47361 | 140.17709 | 33073 ft | 480 kts | 166° |
| 2026-05-07 12:08 | 30.40969 | 140.20003 | 33072 ft | 480 kts | 166° |
| 2026-05-07 12:09 | 30.34584 | 140.22292 | 33075 ft | 480 kts | 166° |
| 2026-05-07 12:09 | 30.28203 | 140.24576 | 33078 ft | 480 kts | 166° |
| 2026-05-07 12:10 | 30.21812 | 140.26860 | 33079 ft | 480 kts | 166° |
| 2026-05-07 12:10 | 30.15429 | 140.29139 | 33082 ft | 480 kts | 166° |
| 2026-05-07 12:11 | 30.09082 | 140.31402 | 33077 ft | 481 kts | 166° |
| 2026-05-07 12:11 | 30.02630 | 140.33472 | 33077 ft | 477 kts | 174° |
| 2026-05-07 12:12 | 29.96000 | 140.33877 | 33089 ft | 471 kts | 186° |
| 2026-05-07 12:12 | 29.89569 | 140.32856 | 33091 ft | 469 kts | 192° |
| 2026-05-07 12:13 | 29.83073 | 140.31644 | 33083 ft | 470 kts | 192° |
| 2026-05-07 12:13 | 29.76643 | 140.30476 | 33084 ft | 470 kts | 191° |
| 2026-05-07 12:14 | 29.70170 | 140.29332 | 33087 ft | 470 kts | 191° |
| 2026-05-07 12:14 | 29.63692 | 140.28199 | 33085 ft | 470 kts | 191° |
| 2026-05-07 12:15 | 29.57216 | 140.27068 | 33087 ft | 470 kts | 191° |
| 2026-05-07 12:15 | 29.50743 | 140.25939 | 33090 ft | 471 kts | 191° |
| 2026-05-07 12:16 | 29.44258 | 140.24807 | 33088 ft | 471 kts | 191° |
| 2026-05-07 12:16 | 29.37780 | 140.23678 | 33087 ft | 471 kts | 191° |
| 2026-05-07 12:17 | 29.31248 | 140.22541 | 33090 ft | 472 kts | 191° |
| 2026-05-07 12:17 | 29.24792 | 140.21419 | 33088 ft | 472 kts | 192° |
| 2026-05-07 12:18 | 29.18278 | 140.20288 | 33089 ft | 473 kts | 192° |
| 2026-05-07 12:18 | 29.11761 | 140.19158 | 33088 ft | 473 kts | 192° |
| 2026-05-07 12:19 | 29.05246 | 140.18030 | 33087 ft | 474 kts | 192° |
| 2026-05-07 12:19 | 28.98722 | 140.16902 | 33089 ft | 474 kts | 192° |
| 2026-05-07 12:20 | 28.92180 | 140.15772 | 33091 ft | 474 kts | 192° |
| 2026-05-07 12:20 | 28.85650 | 140.14646 | 33094 ft | 474 kts | 192° |
| 2026-05-07 12:21 | 28.79158 | 140.13527 | 33092 ft | 474 kts | 192° |
| 2026-05-07 12:21 | 28.72635 | 140.12405 | 33097 ft | 474 kts | 192° |
| 2026-05-07 12:22 | 28.66105 | 140.11283 | 33091 ft | 474 kts | 192° |
| 2026-05-07 12:22 | 28.59572 | 140.10162 | 33090 ft | 475 kts | 193° |
| 2026-05-07 12:23 | 28.53038 | 140.09042 | 33093 ft | 475 kts | 193° |
| 2026-05-07 12:23 | 28.46491 | 140.07921 | 33097 ft | 475 kts | 193° |
| 2026-05-07 12:24 | 28.39954 | 140.06803 | 33096 ft | 476 kts | 193° |
| 2026-05-07 12:24 | 28.33397 | 140.05683 | 33100 ft | 476 kts | 193° |
| 2026-05-07 12:25 | 28.26842 | 140.04565 | 33094 ft | 476 kts | 193° |
| 2026-05-07 12:25 | 28.20243 | 140.03441 | 33094 ft | 476 kts | 193° |
| 2026-05-07 12:26 | 28.13687 | 140.02325 | 33098 ft | 477 kts | 193° |
| 2026-05-07 12:26 | 28.07109 | 140.01207 | 33097 ft | 478 kts | 193° |
| 2026-05-07 12:27 | 28.00554 | 140.00132 | 33100 ft | 481 kts | 191° |
| 2026-05-07 12:27 | 27.93821 | 139.99901 | 33107 ft | 487 kts | 185° |
| 2026-05-07 12:28 | 27.87019 | 139.99957 | 33097 ft | 488 kts | 185° |
| 2026-05-07 12:28 | 27.80208 | 139.99994 | 33099 ft | 489 kts | 185° |
| 2026-05-07 12:29 | 27.73380 | 140.00004 | 33093 ft | 490 kts | 186° |
| 2026-05-07 12:29 | 27.66552 | 140.00002 | 33090 ft | 491 kts | 186° |
| 2026-05-07 12:30 | 27.59714 | 140.00000 | 33100 ft | 492 kts | 186° |
| 2026-05-07 12:30 | 27.52850 | 139.99999 | 33102 ft | 493 kts | 186° |
| 2026-05-07 12:31 | 27.45979 | 139.99999 | 33103 ft | 494 kts | 186° |
| 2026-05-07 12:31 | 27.39102 | 139.99999 | 33101 ft | 494 kts | 186° |
| 2026-05-07 12:32 | 27.32222 | 140.00000 | 33098 ft | 494 kts | 186° |
| 2026-05-07 12:32 | 27.25319 | 140.00000 | 33098 ft | 494 kts | 186° |
| 2026-05-07 12:33 | 27.14998 | 140.00000 | 33096 ft | 494 kts | 186° |
| 2026-05-07 12:33 | 27.08163 | 140.00000 | 33099 ft | 494 kts | 186° |
| 2026-05-07 12:34 | 27.01278 | 140.00000 | 33097 ft | 494 kts | 186° |
| 2026-05-07 12:34 | 26.94407 | 140.00000 | 33102 ft | 494 kts | 186° |
| 2026-05-07 12:35 | 26.87541 | 140.00000 | 33101 ft | 493 kts | 186° |
| 2026-05-07 12:35 | 26.80672 | 140.00000 | 33101 ft | 493 kts | 186° |
| 2026-05-07 12:36 | 26.74959 | 140.00000 | 33101 ft | 493 kts | 185° |
| 2026-05-07 12:36 | 26.68094 | 140.00000 | 33101 ft | 492 kts | 185° |
| 2026-05-07 12:37 | 26.61247 | 140.00001 | 33100 ft | 491 kts | 185° |
| 2026-05-07 12:37 | 26.54409 | 140.00001 | 33102 ft | 490 kts | 185° |
| 2026-05-07 12:38 | 26.47594 | 140.00001 | 33102 ft | 489 kts | 185° |
| 2026-05-07 12:38 | 26.40782 | 140.00001 | 33104 ft | 489 kts | 185° |
| 2026-05-07 12:39 | 26.33988 | 140.00001 | 33103 ft | 488 kts | 185° |
| 2026-05-07 12:39 | 26.27195 | 140.00001 | 33104 ft | 487 kts | 185° |
| 2026-05-07 12:40 | 26.20407 | 140.00001 | 33102 ft | 487 kts | 185° |
| 2026-05-07 12:40 | 26.13637 | 140.00001 | 33103 ft | 486 kts | 184° |
| 2026-05-07 12:41 | 26.06871 | 140.00000 | 33098 ft | 486 kts | 184° |
| 2026-05-07 12:41 | 26.00109 | 140.00000 | 33099 ft | 485 kts | 184° |
| 2026-05-07 12:42 | 25.93341 | 140.00000 | 33100 ft | 485 kts | 184° |
| 2026-05-07 12:42 | 25.86634 | 140.00000 | 33098 ft | 485 kts | 184° |
| 2026-05-07 12:43 | 25.79831 | 140.00000 | 33101 ft | 485 kts | 184° |
| 2026-05-07 12:43 | 25.73071 | 140.00000 | 33102 ft | 485 kts | 184° |
| 2026-05-07 12:44 | 25.66310 | 140.00000 | 33096 ft | 485 kts | 183° |
| 2026-05-07 12:44 | 25.59587 | 140.00000 | 33093 ft | 486 kts | 183° |
| 2026-05-07 12:45 | 25.52820 | 140.00000 | 33093 ft | 486 kts | 183° |
| 2026-05-07 12:45 | 25.46051 | 140.00000 | 33095 ft | 486 kts | 183° |
| 2026-05-07 12:46 | 25.39276 | 140.00000 | 33100 ft | 487 kts | 183° |
| 2026-05-07 12:46 | 25.32502 | 140.00000 | 33098 ft | 487 kts | 183° |
| 2026-05-07 12:47 | 25.25726 | 140.00000 | 33090 ft | 487 kts | 183° |
| 2026-05-07 12:47 | 25.18934 | 140.00000 | 33102 ft | 487 kts | 182° |
| 2026-05-07 12:48 | 25.12146 | 140.00000 | 33094 ft | 487 kts | 182° |
| 2026-05-07 12:48 | 25.05366 | 140.00000 | 33091 ft | 487 kts | 182° |
| 2026-05-07 12:49 | 24.98601 | 140.00000 | 33097 ft | 487 kts | 182° |
| 2026-05-07 12:49 | 24.91823 | 140.00000 | 33096 ft | 486 kts | 182° |
| 2026-05-07 12:50 | 24.85059 | 140.00000 | 33097 ft | 486 kts | 182° |
| 2026-05-07 12:50 | 24.78283 | 140.00000 | 33349 ft | 487 kts | 182° |
| 2026-05-07 12:51 | 24.74905 | 140.00000 | 33741 ft | 484 kts | 182° |
| 2026-05-07 12:51 | 24.71542 | 140.00001 | 34158 ft | 481 kts | 182° |
| 2026-05-07 12:51 | 24.68193 | 140.00002 | 34491 ft | 478 kts | 183° |
| 2026-05-07 12:51 | 24.64875 | 140.00002 | 34764 ft | 477 kts | 183° |
| 2026-05-07 12:52 | 24.61551 | 140.00002 | 34972 ft | 477 kts | 183° |
| 2026-05-07 12:52 | 24.58218 | 140.00001 | 35022 ft | 480 kts | 183° |
| 2026-05-07 12:52 | 24.51539 | 140.00000 | 35089 ft | 478 kts | 183° |
| 2026-05-07 12:53 | 24.44901 | 140.00000 | 35090 ft | 475 kts | 183° |
| 2026-05-07 12:53 | 24.38333 | 140.00001 | 35092 ft | 474 kts | 183° |
| 2026-05-07 12:54 | 24.31697 | 140.00001 | 35083 ft | 473 kts | 183° |
| 2026-05-07 12:54 | 24.25151 | 140.00000 | 35092 ft | 473 kts | 183° |
| 2026-05-07 12:55 | 24.18561 | 140.00000 | 35091 ft | 474 kts | 183° |
| 2026-05-07 12:55 | 24.11962 | 139.99999 | 35091 ft | 474 kts | 183° |
| 2026-05-07 12:56 | 24.05348 | 139.99999 | 35087 ft | 475 kts | 183° |
| 2026-05-07 12:56 | 23.98718 | 139.99999 | 35085 ft | 476 kts | 183° |
| 2026-05-07 12:57 | 23.92089 | 140.00000 | 35087 ft | 476 kts | 183° |
| 2026-05-07 12:57 | 23.85462 | 140.00000 | 35092 ft | 476 kts | 183° |
| 2026-05-07 12:58 | 23.78835 | 140.00000 | 35087 ft | 476 kts | 183° |
| 2026-05-07 12:58 | 23.72213 | 140.00000 | 35085 ft | 476 kts | 183° |
| 2026-05-07 12:59 | 23.65598 | 140.00000 | 35086 ft | 475 kts | 183° |
| 2026-05-07 12:59 | 23.58979 | 140.00000 | 35087 ft | 475 kts | 183° |
| 2026-05-07 13:00 | 23.52357 | 140.00000 | 35083 ft | 475 kts | 182° |
| 2026-05-07 13:00 | 23.45738 | 140.00000 | 35083 ft | 475 kts | 182° |
| 2026-05-07 13:01 | 23.39124 | 140.00000 | 35085 ft | 475 kts | 182° |
| 2026-05-07 13:01 | 23.32535 | 140.00000 | 35084 ft | 475 kts | 182° |
| 2026-05-07 13:02 | 23.25917 | 140.00000 | 35082 ft | 475 kts | 182° |
| 2026-05-07 13:02 | 23.19314 | 140.00000 | 35080 ft | 476 kts | 182° |
| 2026-05-07 13:03 | 23.12696 | 140.00000 | 35079 ft | 476 kts | 182° |
| 2026-05-07 13:03 | 23.06065 | 140.00000 | 35075 ft | 476 kts | 182° |
| 2026-05-07 13:04 | 22.99440 | 140.00000 | 35076 ft | 476 kts | 182° |
| 2026-05-07 13:04 | 22.92815 | 140.00000 | 35076 ft | 476 kts | 182° |
| 2026-05-07 13:05 | 22.86188 | 140.00000 | 35079 ft | 476 kts | 182° |
| 2026-05-07 13:05 | 22.79552 | 140.00000 | 35077 ft | 476 kts | 182° |
| 2026-05-07 13:06 | 22.72919 | 140.00000 | 35075 ft | 476 kts | 182° |
| 2026-05-07 13:06 | 22.66288 | 140.00000 | 35072 ft | 476 kts | 182° |
| 2026-05-07 13:07 | 22.59639 | 140.00000 | 35074 ft | 477 kts | 182° |
| 2026-05-07 13:07 | 22.53001 | 140.00000 | 35076 ft | 477 kts | 182° |
| 2026-05-07 13:08 | 22.46395 | 140.00000 | 35073 ft | 477 kts | 182° |
| 2026-05-07 13:08 | 22.39747 | 140.00000 | 35071 ft | 477 kts | 182° |
| 2026-05-07 13:09 | 22.34218 | 140.00000 | 35070 ft | 478 kts | 182° |
| 2026-05-07 13:09 | 22.27559 | 140.00000 | 35068 ft | 478 kts | 182° |
| 2026-05-07 13:10 | 22.20902 | 140.00000 | 35068 ft | 478 kts | 182° |
| 2026-05-07 13:10 | 22.14260 | 140.00000 | 35067 ft | 478 kts | 182° |
| 2026-05-07 13:11 | 22.07596 | 140.00000 | 35067 ft | 478 kts | 182° |
| 2026-05-07 13:11 | 22.00885 | 140.00000 | 35071 ft | 478 kts | 182° |
| 2026-05-07 13:12 | 21.94271 | 140.00000 | 35066 ft | 478 kts | 182° |
| 2026-05-07 13:12 | 21.87602 | 139.99999 | 35063 ft | 479 kts | 182° |
| 2026-05-07 13:13 | 21.80926 | 139.99999 | 35060 ft | 479 kts | 182° |
| 2026-05-07 13:13 | 21.74255 | 139.99999 | 35062 ft | 479 kts | 182° |
| 2026-05-07 13:14 | 21.67574 | 139.99999 | 35061 ft | 479 kts | 182° |
| 2026-05-07 13:14 | 21.60898 | 140.00000 | 35064 ft | 479 kts | 182° |
| 2026-05-07 13:15 | 21.54264 | 140.00000 | 35060 ft | 479 kts | 182° |
| 2026-05-07 13:15 | 21.47576 | 139.99999 | 35060 ft | 480 kts | 182° |
| 2026-05-07 13:16 | 21.40885 | 139.99999 | 35057 ft | 480 kts | 182° |
| 2026-05-07 13:16 | 21.34190 | 139.99999 | 35060 ft | 480 kts | 182° |
| 2026-05-07 13:17 | 21.27548 | 139.99999 | 35056 ft | 480 kts | 182° |
| 2026-05-07 13:17 | 21.20859 | 139.99999 | 35058 ft | 480 kts | 182° |
| 2026-05-07 13:18 | 21.14167 | 139.99999 | 35058 ft | 481 kts | 182° |
| 2026-05-07 13:18 | 21.07472 | 139.99999 | 35058 ft | 481 kts | 182° |
| 2026-05-07 13:19 | 21.00776 | 139.99999 | 35059 ft | 481 kts | 182° |
| 2026-05-07 13:19 | 20.94083 | 139.99999 | 35051 ft | 481 kts | 182° |
| 2026-05-07 13:20 | 20.87381 | 139.99999 | 35050 ft | 481 kts | 182° |
| 2026-05-07 13:20 | 20.80675 | 139.99999 | 35060 ft | 482 kts | 182° |
| 2026-05-07 13:21 | 20.73967 | 139.99999 | 35049 ft | 482 kts | 182° |
| 2026-05-07 13:21 | 20.67259 | 139.99999 | 35042 ft | 482 kts | 182° |
| 2026-05-07 13:22 | 20.60577 | 139.99999 | 35052 ft | 483 kts | 182° |
| 2026-05-07 13:22 | 20.53850 | 139.99999 | 35044 ft | 483 kts | 182° |
| 2026-05-07 13:23 | 20.47120 | 139.99999 | 35049 ft | 483 kts | 182° |
| 2026-05-07 13:23 | 20.40392 | 139.99999 | 35045 ft | 484 kts | 182° |
| 2026-05-07 13:24 | 20.33639 | 139.99999 | 35044 ft | 484 kts | 182° |
| 2026-05-07 13:24 | 20.26887 | 140.00000 | 35044 ft | 485 kts | 182° |
| 2026-05-07 13:25 | 20.20143 | 140.00000 | 35040 ft | 485 kts | 182° |
| 2026-05-07 13:25 | 20.13377 | 140.00000 | 35038 ft | 485 kts | 182° |
| 2026-05-07 13:26 | 20.06608 | 140.00000 | 35044 ft | 486 kts | 182° |
| 2026-05-07 13:26 | 19.99881 | 140.00000 | 35040 ft | 486 kts | 182° |
| 2026-05-07 13:27 | 19.93095 | 140.00000 | 35041 ft | 487 kts | 182° |
| 2026-05-07 13:27 | 19.86320 | 140.00000 | 35037 ft | 487 kts | 182° |
| 2026-05-07 13:28 | 19.79529 | 140.00000 | 35035 ft | 488 kts | 182° |
| 2026-05-07 13:28 | 19.72722 | 140.00000 | 35038 ft | 488 kts | 182° |
| 2026-05-07 13:29 | 19.65970 | 140.00000 | 35035 ft | 488 kts | 182° |
| 2026-05-07 13:29 | 19.59163 | 140.00000 | 35033 ft | 488 kts | 182° |
| 2026-05-07 13:30 | 19.52363 | 140.00000 | 35033 ft | 489 kts | 182° |
| 2026-05-07 13:30 | 19.45550 | 140.00000 | 35034 ft | 489 kts | 182° |
| 2026-05-07 13:31 | 19.38737 | 140.00000 | 35029 ft | 490 kts | 182° |
| 2026-05-07 13:31 | 19.31909 | 140.00000 | 35029 ft | 490 kts | 182° |
| 2026-05-07 13:32 | 19.25078 | 140.00000 | 35025 ft | 490 kts | 182° |
| 2026-05-07 13:32 | 19.18262 | 140.00000 | 35025 ft | 490 kts | 182° |
| 2026-05-07 13:33 | 19.11429 | 139.99999 | 35026 ft | 490 kts | 182° |
| 2026-05-07 13:33 | 19.04647 | 139.99999 | 35025 ft | 490 kts | 182° |
| 2026-05-07 13:34 | 18.94412 | 140.00000 | 35021 ft | 490 kts | 182° |
| 2026-05-07 13:35 | 18.87586 | 140.00000 | 35023 ft | 490 kts | 182° |
| 2026-05-07 13:35 | 18.80764 | 140.00000 | 35021 ft | 490 kts | 182° |
| 2026-05-07 13:36 | 18.73938 | 140.00000 | 35022 ft | 490 kts | 182° |
| 2026-05-07 13:36 | 18.67106 | 140.00000 | 35017 ft | 490 kts | 182° |
| 2026-05-07 13:37 | 18.60274 | 140.00000 | 35017 ft | 490 kts | 182° |
| 2026-05-07 13:37 | 18.53447 | 140.00000 | 35017 ft | 490 kts | 182° |
| 2026-05-07 13:38 | 18.46607 | 140.00000 | 35013 ft | 491 kts | 182° |
| 2026-05-07 13:38 | 18.39762 | 140.00000 | 35011 ft | 491 kts | 182° |
| 2026-05-07 13:39 | 18.32931 | 140.00000 | 35010 ft | 491 kts | 182° |
| 2026-05-07 13:39 | 18.26095 | 140.00000 | 35006 ft | 491 kts | 182° |
| 2026-05-07 13:40 | 18.19259 | 140.00000 | 35008 ft | 491 kts | 183° |
| 2026-05-07 13:40 | 18.12446 | 140.00000 | 35012 ft | 491 kts | 183° |
| 2026-05-07 13:41 | 18.05598 | 140.00000 | 35005 ft | 491 kts | 183° |
| 2026-05-07 13:41 | 17.98752 | 140.00000 | 35006 ft | 491 kts | 183° |
| 2026-05-07 13:42 | 17.91910 | 140.00000 | 35005 ft | 491 kts | 183° |
| 2026-05-07 13:42 | 17.85071 | 140.00000 | 35000 ft | 491 kts | 183° |
| 2026-05-07 13:43 | 17.78227 | 140.00000 | 34999 ft | 491 kts | 183° |
| 2026-05-07 13:43 | 17.71430 | 140.00000 | 34999 ft | 491 kts | 183° |
| 2026-05-07 13:44 | 17.64596 | 140.00000 | 34997 ft | 491 kts | 183° |
| 2026-05-07 13:44 | 17.58858 | 140.00000 | 34995 ft | 491 kts | 183° |
| 2026-05-07 13:45 | 17.52012 | 140.00000 | 34994 ft | 491 kts | 183° |
| 2026-05-07 13:45 | 17.45182 | 140.00000 | 34993 ft | 491 kts | 183° |
| 2026-05-07 13:46 | 17.38364 | 140.00000 | 34992 ft | 491 kts | 183° |
| 2026-05-07 13:46 | 17.31525 | 140.00000 | 34989 ft | 491 kts | 183° |
| 2026-05-07 13:47 | 17.24683 | 140.00000 | 34989 ft | 491 kts | 183° |
| 2026-05-07 13:47 | 17.17848 | 140.00000 | 34990 ft | 491 kts | 183° |
| 2026-05-07 13:48 | 17.11009 | 140.00000 | 34986 ft | 491 kts | 183° |
| 2026-05-07 13:48 | 17.04172 | 140.00000 | 34983 ft | 491 kts | 183° |
| 2026-05-07 13:49 | 16.97335 | 140.00000 | 34984 ft | 491 kts | 184° |
| 2026-05-07 13:49 | 16.90531 | 140.00000 | 34980 ft | 491 kts | 184° |
| 2026-05-07 13:50 | 16.83679 | 140.00000 | 34981 ft | 491 kts | 184° |
| 2026-05-07 13:50 | 16.76844 | 140.00000 | 34980 ft | 491 kts | 184° |
| 2026-05-07 13:51 | 16.70001 | 140.00000 | 34978 ft | 491 kts | 184° |
| 2026-05-07 13:51 | 16.63163 | 140.00000 | 34975 ft | 492 kts | 184° |
| 2026-05-07 13:52 | 16.56310 | 140.00000 | 34975 ft | 492 kts | 184° |
| 2026-05-07 13:52 | 16.49448 | 140.00000 | 34972 ft | 492 kts | 184° |
| 2026-05-07 13:53 | 16.42644 | 140.00000 | 34973 ft | 492 kts | 184° |
| 2026-05-07 13:53 | 16.35793 | 140.00000 | 34970 ft | 492 kts | 184° |
| 2026-05-07 13:54 | 16.28936 | 140.00000 | 34966 ft | 492 kts | 184° |
| 2026-05-07 13:54 | 16.22083 | 140.00000 | 34969 ft | 492 kts | 184° |
| 2026-05-07 13:55 | 16.15213 | 140.00000 | 34964 ft | 493 kts | 184° |
| 2026-05-07 13:55 | 16.08346 | 140.00000 | 34967 ft | 493 kts | 184° |
| 2026-05-07 13:56 | 16.01481 | 140.00000 | 34965 ft | 493 kts | 183° |
| 2026-05-07 13:56 | 15.94609 | 140.00000 | 34964 ft | 493 kts | 183° |
| 2026-05-07 13:57 | 15.87741 | 140.00000 | 34961 ft | 493 kts | 183° |
| 2026-05-07 13:57 | 15.80924 | 140.00000 | 34956 ft | 493 kts | 183° |
| 2026-05-07 13:58 | 15.74036 | 140.00000 | 34959 ft | 494 kts | 183° |
| 2026-05-07 13:58 | 15.67162 | 140.00000 | 34955 ft | 494 kts | 183° |
| 2026-05-07 13:59 | 15.60285 | 140.00000 | 34957 ft | 494 kts | 183° |
| 2026-05-07 13:59 | 15.53405 | 140.00000 | 34956 ft | 494 kts | 183° |
| 2026-05-07 14:00 | 15.46527 | 140.00000 | 34954 ft | 494 kts | 183° |
| 2026-05-07 14:00 | 15.39691 | 140.00000 | 34953 ft | 494 kts | 183° |
| 2026-05-07 14:01 | 15.32816 | 140.00000 | 34952 ft | 493 kts | 183° |
| 2026-05-07 14:01 | 15.25940 | 140.00000 | 34948 ft | 493 kts | 183° |
| 2026-05-07 14:02 | 15.19071 | 140.00000 | 34945 ft | 493 kts | 183° |
| 2026-05-07 14:02 | 15.12202 | 140.00000 | 34947 ft | 493 kts | 183° |
| 2026-05-07 14:03 | 15.05345 | 140.00000 | 34942 ft | 493 kts | 183° |
| 2026-05-07 14:03 | 14.98517 | 140.00000 | 34944 ft | 493 kts | 183° |
| 2026-05-07 14:04 | 14.91642 | 140.00000 | 34938 ft | 493 kts | 183° |
| 2026-05-07 14:04 | 14.84776 | 140.00000 | 34934 ft | 493 kts | 183° |
| 2026-05-07 14:05 | 14.77911 | 140.00000 | 34939 ft | 493 kts | 183° |
| 2026-05-07 14:05 | 14.71045 | 140.00000 | 34938 ft | 493 kts | 182° |
| 2026-05-07 14:06 | 14.64182 | 140.00000 | 34931 ft | 493 kts | 182° |
| 2026-05-07 14:06 | 14.57317 | 140.00000 | 34932 ft | 493 kts | 182° |
| 2026-05-07 14:07 | 14.50463 | 140.00000 | 34929 ft | 492 kts | 182° |
| 2026-05-07 14:07 | 14.43582 | 140.00000 | 34927 ft | 492 kts | 182° |
| 2026-05-07 14:08 | 14.36743 | 140.00000 | 34928 ft | 492 kts | 182° |
| 2026-05-07 14:08 | 14.29890 | 140.00000 | 34926 ft | 491 kts | 182° |
| 2026-05-07 14:09 | 14.23092 | 140.00000 | 34924 ft | 491 kts | 182° |
| 2026-05-07 14:09 | 14.16246 | 140.00001 | 34920 ft | 491 kts | 182° |
| 2026-05-07 14:10 | 14.09409 | 140.00001 | 34920 ft | 490 kts | 182° |
| 2026-05-07 14:10 | 14.02584 | 140.00000 | 34918 ft | 490 kts | 182° |
| 2026-05-07 14:11 | 13.95756 | 139.99999 | 34914 ft | 490 kts | 182° |
| 2026-05-07 14:11 | 13.88923 | 139.99999 | 34915 ft | 490 kts | 182° |
| 2026-05-07 14:12 | 13.82143 | 140.00000 | 34916 ft | 490 kts | 182° |
| 2026-05-07 14:12 | 13.75321 | 140.00001 | 34913 ft | 490 kts | 182° |
| 2026-05-07 14:13 | 13.68492 | 140.00000 | 34913 ft | 490 kts | 182° |
| 2026-05-07 14:13 | 13.61659 | 139.99999 | 34910 ft | 491 kts | 182° |
| 2026-05-07 14:14 | 13.54806 | 139.99999 | 34910 ft | 491 kts | 182° |
| 2026-05-07 14:14 | 13.47967 | 140.00001 | 34906 ft | 491 kts | 182° |
| 2026-05-07 14:15 | 13.41127 | 140.00000 | 34904 ft | 491 kts | 182° |
| 2026-05-07 14:15 | 13.34289 | 139.99999 | 34905 ft | 491 kts | 182° |
| 2026-05-07 14:16 | 13.27446 | 139.99999 | 34901 ft | 491 kts | 182° |
| 2026-05-07 14:16 | 13.20600 | 140.00000 | 34897 ft | 491 kts | 182° |
| 2026-05-07 14:17 | 13.13802 | 140.00000 | 34895 ft | 491 kts | 181° |
| 2026-05-07 14:17 | 13.06955 | 139.99999 | 34896 ft | 492 kts | 182° |
| 2026-05-07 14:18 | 13.00115 | 139.99998 | 34897 ft | 492 kts | 182° |
| 2026-05-07 14:18 | 12.93261 | 140.00000 | 34893 ft | 492 kts | 182° |
| 2026-05-07 14:19 | 12.86407 | 140.00000 | 34890 ft | 492 kts | 182° |
| 2026-05-07 14:19 | 12.80700 | 140.00000 | 34889 ft | 493 kts | 181° |
| 2026-05-07 14:20 | 12.73783 | 140.00000 | 34887 ft | 493 kts | 181° |
| 2026-05-07 14:20 | 12.66918 | 139.99999 | 34887 ft | 494 kts | 181° |
| 2026-05-07 14:21 | 12.60089 | 140.00000 | 34882 ft | 494 kts | 181° |
| 2026-05-07 14:21 | 12.53217 | 140.00000 | 34885 ft | 494 kts | 181° |
| 2026-05-07 14:22 | 12.46321 | 140.00000 | 34887 ft | 494 kts | 181° |
| 2026-05-07 14:22 | 12.39439 | 139.99999 | 34882 ft | 494 kts | 181° |
| 2026-05-07 14:23 | 12.32555 | 139.99999 | 34883 ft | 494 kts | 181° |
| 2026-05-07 14:23 | 12.25665 | 140.00001 | 34881 ft | 494 kts | 181° |
| 2026-05-07 14:24 | 12.18822 | 140.00000 | 34878 ft | 494 kts | 181° |
| 2026-05-07 14:24 | 12.11935 | 140.00001 | 34876 ft | 494 kts | 181° |
| 2026-05-07 14:25 | 12.05065 | 140.00000 | 34879 ft | 493 kts | 181° |
| 2026-05-07 14:25 | 11.98186 | 139.99999 | 34875 ft | 493 kts | 181° |
| 2026-05-07 14:26 | 11.91331 | 139.99999 | 34873 ft | 493 kts | 181° |
| 2026-05-07 14:26 | 11.84515 | 140.00000 | 34867 ft | 493 kts | 181° |
| 2026-05-07 14:27 | 11.77652 | 140.00000 | 34872 ft | 493 kts | 181° |
| 2026-05-07 14:27 | 11.70787 | 140.00000 | 34868 ft | 493 kts | 181° |
| 2026-05-07 14:28 | 11.63920 | 140.00001 | 34870 ft | 493 kts | 181° |
| 2026-05-07 14:28 | 11.57067 | 140.00000 | 34864 ft | 493 kts | 181° |
| 2026-05-07 14:29 | 11.50216 | 140.00000 | 34868 ft | 493 kts | 181° |
| 2026-05-07 14:29 | 11.43325 | 139.99999 | 34865 ft | 493 kts | 181° |
| 2026-05-07 14:30 | 11.36455 | 140.00000 | 34867 ft | 494 kts | 181° |
| 2026-05-07 14:30 | 11.29580 | 140.00000 | 34859 ft | 494 kts | 180° |
| 2026-05-07 14:31 | 11.22703 | 140.00000 | 34857 ft | 494 kts | 181° |
| 2026-05-07 14:31 | 11.15830 | 140.00000 | 34854 ft | 494 kts | 180° |
| 2026-05-07 14:32 | 11.08990 | 140.00000 | 34855 ft | 494 kts | 180° |
| 2026-05-07 14:32 | 11.02069 | 140.00000 | 34851 ft | 494 kts | 180° |
| 2026-05-07 14:33 | 10.95226 | 140.00000 | 34849 ft | 494 kts | 180° |
| 2026-05-07 14:33 | 10.88353 | 140.00000 | 34850 ft | 494 kts | 180° |
| 2026-05-07 14:34 | 10.81467 | 140.00000 | 34849 ft | 494 kts | 180° |
| 2026-05-07 14:34 | 10.74592 | 140.00000 | 34844 ft | 494 kts | 180° |
| 2026-05-07 14:35 | 10.67723 | 140.00000 | 34845 ft | 493 kts | 180° |
| 2026-05-07 14:35 | 10.60850 | 140.00000 | 34842 ft | 493 kts | 180° |
| 2026-05-07 14:36 | 10.53990 | 140.00000 | 34840 ft | 493 kts | 180° |
| 2026-05-07 14:36 | 10.47095 | 140.00000 | 34839 ft | 492 kts | 180° |
| 2026-05-07 14:37 | 10.40271 | 140.00000 | 34841 ft | 492 kts | 180° |
| 2026-05-07 14:37 | 10.29986 | 140.00000 | 34836 ft | 492 kts | 180° |
| 2026-05-07 14:38 | 10.23142 | 140.00000 | 34839 ft | 492 kts | 180° |
| 2026-05-07 14:38 | 10.16285 | 140.00000 | 34833 ft | 492 kts | 180° |
| 2026-05-07 14:39 | 10.09433 | 140.00000 | 34836 ft | 492 kts | 180° |
| 2026-05-07 14:39 | 10.02571 | 140.00000 | 34831 ft | 493 kts | 180° |
| 2026-05-07 14:40 | 9.95711 | 140.00000 | 34835 ft | 493 kts | 180° |
| 2026-05-07 14:40 | 9.88853 | 140.00000 | 34835 ft | 493 kts | 180° |
| 2026-05-07 14:41 | 9.81984 | 140.00000 | 34827 ft | 493 kts | 180° |
| 2026-05-07 14:41 | 9.75113 | 140.00000 | 34825 ft | 493 kts | 180° |
| 2026-05-07 14:42 | 9.68244 | 140.00000 | 34824 ft | 493 kts | 180° |
| 2026-05-07 14:42 | 9.61378 | 140.00000 | 34821 ft | 493 kts | 180° |
| 2026-05-07 14:43 | 9.54506 | 140.00000 | 34822 ft | 493 kts | 180° |
| 2026-05-07 14:43 | 9.47638 | 140.00000 | 34817 ft | 493 kts | 180° |
| 2026-05-07 14:44 | 9.40809 | 140.00000 | 34819 ft | 493 kts | 180° |
| 2026-05-07 14:44 | 9.33949 | 140.00000 | 34818 ft | 493 kts | 180° |
| 2026-05-07 14:45 | 9.27093 | 140.00000 | 34814 ft | 493 kts | 180° |
| 2026-05-07 14:45 | 9.20234 | 140.00000 | 34816 ft | 493 kts | 180° |
| 2026-05-07 14:46 | 9.13375 | 140.00000 | 34813 ft | 493 kts | 180° |
| 2026-05-07 14:46 | 9.06510 | 140.00000 | 34816 ft | 493 kts | 180° |
| 2026-05-07 14:47 | 8.99651 | 140.00000 | 34811 ft | 492 kts | 179° |
| 2026-05-07 14:47 | 8.92802 | 140.00000 | 34805 ft | 492 kts | 179° |
| 2026-05-07 14:48 | 8.85939 | 140.00000 | 34808 ft | 492 kts | 179° |
| 2026-05-07 14:48 | 8.79081 | 140.00000 | 34801 ft | 492 kts | 179° |
| 2026-05-07 14:49 | 8.72228 | 140.00000 | 34807 ft | 492 kts | 179° |
| 2026-05-07 14:49 | 8.65384 | 140.00000 | 34803 ft | 493 kts | 179° |
| 2026-05-07 14:50 | 8.58491 | 140.00000 | 34797 ft | 493 kts | 179° |
| 2026-05-07 14:50 | 8.51662 | 140.00000 | 34806 ft | 493 kts | 179° |
| 2026-05-07 14:51 | 8.44760 | 140.00000 | 34803 ft | 493 kts | 179° |
| 2026-05-07 14:51 | 8.37927 | 140.00000 | 34802 ft | 494 kts | 179° |
| 2026-05-07 14:52 | 8.31051 | 140.00000 | 34796 ft | 494 kts | 179° |
| 2026-05-07 14:52 | 8.24168 | 140.00000 | 34805 ft | 494 kts | 179° |
| 2026-05-07 14:53 | 8.17285 | 140.00000 | 34800 ft | 494 kts | 179° |
| 2026-05-07 14:53 | 8.10408 | 140.00000 | 34795 ft | 494 kts | 179° |
| 2026-05-07 14:54 | 8.04680 | 140.00000 | 34794 ft | 495 kts | 179° |
| 2026-05-07 14:54 | 7.97795 | 140.00000 | 34791 ft | 495 kts | 179° |
| 2026-05-07 14:55 | 7.90906 | 140.00000 | 34792 ft | 495 kts | 179° |
| 2026-05-07 14:55 | 7.84015 | 140.00000 | 34801 ft | 495 kts | 179° |
| 2026-05-07 14:56 | 7.77101 | 140.00000 | 34796 ft | 496 kts | 179° |
| 2026-05-07 14:56 | 7.70187 | 140.00000 | 34799 ft | 496 kts | 179° |
| 2026-05-07 14:57 | 7.63286 | 140.00000 | 34794 ft | 496 kts | 179° |
| 2026-05-07 14:57 | 7.56371 | 140.00000 | 34798 ft | 496 kts | 179° |
| 2026-05-07 14:58 | 7.49473 | 140.00000 | 34793 ft | 496 kts | 179° |
| 2026-05-07 14:58 | 7.42557 | 140.00000 | 34800 ft | 496 kts | 179° |
| 2026-05-07 14:59 | 7.35689 | 140.00000 | 34795 ft | 496 kts | 179° |
| 2026-05-07 14:59 | 7.28780 | 140.00000 | 34800 ft | 496 kts | 179° |
| 2026-05-07 15:00 | 7.21873 | 140.00000 | 34796 ft | 496 kts | 179° |
| 2026-05-07 15:00 | 7.14970 | 140.00000 | 34799 ft | 496 kts | 179° |
| 2026-05-07 15:01 | 7.08055 | 140.00000 | 34794 ft | 495 kts | 179° |
| 2026-05-07 15:01 | 7.01207 | 140.00000 | 34797 ft | 495 kts | 179° |
| 2026-05-07 15:02 | 6.94307 | 140.00001 | 34801 ft | 495 kts | 179° |
| 2026-05-07 15:02 | 6.87363 | 140.00000 | 34803 ft | 495 kts | 179° |
| 2026-05-07 15:03 | 6.80471 | 140.00000 | 34799 ft | 495 kts | 179° |
| 2026-05-07 15:03 | 6.73575 | 140.00000 | 34799 ft | 495 kts | 179° |
| 2026-05-07 15:04 | 6.66677 | 140.00000 | 34795 ft | 495 kts | 179° |
| 2026-05-07 15:04 | 6.59820 | 140.00000 | 34798 ft | 495 kts | 179° |
| 2026-05-07 15:05 | 6.52927 | 140.00000 | 34809 ft | 495 kts | 180° |
| 2026-05-07 15:05 | 6.46027 | 140.00000 | 34810 ft | 496 kts | 180° |
| 2026-05-07 15:06 | 6.39122 | 140.00000 | 34803 ft | 496 kts | 180° |
| 2026-05-07 15:06 | 6.32214 | 140.00000 | 34804 ft | 496 kts | 180° |
| 2026-05-07 15:07 | 6.25301 | 140.00000 | 34809 ft | 497 kts | 180° |
| 2026-05-07 15:07 | 6.18382 | 140.00000 | 34802 ft | 497 kts | 180° |
| 2026-05-07 15:08 | 6.11454 | 140.00000 | 34801 ft | 497 kts | 180° |
| 2026-05-07 15:08 | 6.04556 | 140.00000 | 34806 ft | 498 kts | 180° |
| 2026-05-07 15:09 | 5.97618 | 140.00000 | 34809 ft | 497 kts | 180° |
| 2026-05-07 15:09 | 5.90689 | 140.00000 | 34807 ft | 497 kts | 180° |
| 2026-05-07 15:10 | 5.83766 | 140.00000 | 34807 ft | 497 kts | 180° |
| 2026-05-07 15:10 | 5.76849 | 140.00000 | 34807 ft | 496 kts | 180° |
| 2026-05-07 15:11 | 5.69940 | 140.00000 | 34810 ft | 496 kts | 180° |
| 2026-05-07 15:11 | 5.63038 | 140.00000 | 34807 ft | 496 kts | 180° |
| 2026-05-07 15:12 | 5.56169 | 140.00000 | 34806 ft | 495 kts | 180° |
| 2026-05-07 15:12 | 5.49274 | 140.00000 | 34810 ft | 495 kts | 180° |
| 2026-05-07 15:13 | 5.42380 | 140.00000 | 34813 ft | 495 kts | 180° |
| 2026-05-07 15:13 | 5.35483 | 140.00000 | 34816 ft | 495 kts | 180° |
| 2026-05-07 15:14 | 5.28624 | 140.00000 | 34816 ft | 495 kts | 180° |
| 2026-05-07 15:14 | 5.21741 | 140.00000 | 34808 ft | 495 kts | 180° |
| 2026-05-07 15:15 | 5.14849 | 140.00000 | 34814 ft | 495 kts | 180° |
| 2026-05-07 15:15 | 5.07972 | 140.00000 | 34807 ft | 494 kts | 180° |
| 2026-05-07 15:16 | 5.01172 | 140.00640 | 34808 ft | 492 kts | 162° |
| 2026-05-07 15:16 | 4.95103 | 140.03703 | 34810 ft | 489 kts | 141° |
| 2026-05-07 15:17 | 4.89830 | 140.08022 | 34812 ft | 491 kts | 140° |
| 2026-05-07 15:17 | 4.84547 | 140.12390 | 34813 ft | 492 kts | 140° |
| 2026-05-07 15:18 | 4.79213 | 140.16732 | 34819 ft | 494 kts | 141° |
| 2026-05-07 15:18 | 4.73849 | 140.21054 | 34813 ft | 494 kts | 141° |
| 2026-05-07 15:19 | 4.68487 | 140.25361 | 34812 ft | 494 kts | 141° |
| 2026-05-07 15:19 | 4.63162 | 140.29640 | 34812 ft | 492 kts | 141° |
| 2026-05-07 15:20 | 4.57820 | 140.33935 | 34813 ft | 491 kts | 140° |
| 2026-05-07 15:20 | 4.52499 | 140.38214 | 34810 ft | 490 kts | 140° |
| 2026-05-07 15:21 | 4.47191 | 140.42481 | 34813 ft | 489 kts | 140° |
| 2026-05-07 15:21 | 4.41883 | 140.46746 | 34817 ft | 488 kts | 140° |
| 2026-05-07 15:22 | 4.36590 | 140.50999 | 34820 ft | 487 kts | 140° |
| 2026-05-07 15:22 | 4.31302 | 140.55247 | 34815 ft | 486 kts | 140° |
| 2026-05-07 15:23 | 4.26018 | 140.59491 | 34815 ft | 486 kts | 140° |
| 2026-05-07 15:23 | 4.20751 | 140.63722 | 34813 ft | 485 kts | 140° |
| 2026-05-07 15:24 | 4.15528 | 140.67916 | 34815 ft | 485 kts | 140° |
| 2026-05-07 15:24 | 4.10255 | 140.72149 | 34816 ft | 486 kts | 140° |
| 2026-05-07 15:25 | 4.04966 | 140.76394 | 34821 ft | 487 kts | 140° |
| 2026-05-07 15:25 | 3.99678 | 140.80638 | 34818 ft | 487 kts | 140° |
| 2026-05-07 15:26 | 3.94374 | 140.84895 | 34818 ft | 488 kts | 140° |
| 2026-05-07 15:26 | 3.89075 | 140.89145 | 34816 ft | 488 kts | 140° |
| 2026-05-07 15:27 | 3.83771 | 140.93399 | 34824 ft | 488 kts | 140° |
| 2026-05-07 15:27 | 3.78469 | 140.97652 | 34817 ft | 488 kts | 140° |
| 2026-05-07 15:28 | 3.73170 | 141.01901 | 34820 ft | 488 kts | 140° |
| 2026-05-07 15:28 | 3.67867 | 141.06152 | 34818 ft | 488 kts | 140° |
| 2026-05-07 15:29 | 3.62561 | 141.10405 | 34816 ft | 488 kts | 140° |
| 2026-05-07 15:29 | 3.57253 | 141.14660 | 34818 ft | 488 kts | 140° |
| 2026-05-07 15:30 | 3.51938 | 141.18920 | 34817 ft | 489 kts | 140° |
| 2026-05-07 15:30 | 3.47514 | 141.22465 | 34818 ft | 489 kts | 140° |
| 2026-05-07 15:31 | 3.41332 | 141.27417 | 34820 ft | 490 kts | 140° |
| 2026-05-07 15:31 | 3.36875 | 141.30988 | 34821 ft | 490 kts | 140° |
| 2026-05-07 15:32 | 3.31537 | 141.35263 | 34818 ft | 490 kts | 140° |
| 2026-05-07 15:32 | 3.26210 | 141.39529 | 34819 ft | 489 kts | 140° |
| 2026-05-07 15:33 | 3.20898 | 141.43781 | 34820 ft | 489 kts | 140° |
| 2026-05-07 15:33 | 3.15586 | 141.48034 | 34821 ft | 489 kts | 140° |
| 2026-05-07 15:34 | 3.10276 | 141.52284 | 34822 ft | 489 kts | 140° |
| 2026-05-07 15:34 | 3.04955 | 141.56543 | 34822 ft | 489 kts | 140° |
| 2026-05-07 15:35 | 2.99643 | 141.60795 | 34824 ft | 488 kts | 140° |
| 2026-05-07 15:35 | 2.94338 | 141.65040 | 34818 ft | 488 kts | 140° |
| 2026-05-07 15:36 | 2.89062 | 141.69261 | 34824 ft | 488 kts | 140° |
| 2026-05-07 15:36 | 2.83762 | 141.73499 | 34822 ft | 488 kts | 140° |
| 2026-05-07 15:37 | 2.78455 | 141.77745 | 34820 ft | 488 kts | 140° |
| 2026-05-07 15:37 | 2.73156 | 141.81983 | 34821 ft | 488 kts | 140° |
| 2026-05-07 15:38 | 2.67855 | 141.86221 | 34823 ft | 488 kts | 140° |
| 2026-05-07 15:38 | 2.62551 | 141.90463 | 34824 ft | 487 kts | 140° |
| 2026-05-07 15:39 | 2.57247 | 141.94703 | 34822 ft | 487 kts | 140° |
| 2026-05-07 15:39 | 2.51953 | 141.98934 | 34826 ft | 487 kts | 140° |
| 2026-05-07 15:40 | 2.46651 | 142.03173 | 34829 ft | 488 kts | 140° |
| 2026-05-07 15:40 | 2.41378 | 142.07387 | 34825 ft | 487 kts | 140° |
| 2026-05-07 15:41 | 2.36077 | 142.11624 | 34828 ft | 487 kts | 140° |
| 2026-05-07 15:41 | 2.30777 | 142.15859 | 34824 ft | 487 kts | 140° |
| 2026-05-07 15:42 | 2.25468 | 142.20101 | 34825 ft | 487 kts | 140° |
| 2026-05-07 15:42 | 2.20169 | 142.24334 | 34826 ft | 487 kts | 140° |
| 2026-05-07 15:43 | 2.14869 | 142.28568 | 34827 ft | 488 kts | 140° |
| 2026-05-07 15:43 | 2.09562 | 142.32807 | 34828 ft | 488 kts | 140° |
| 2026-05-07 15:44 | 2.04283 | 142.37022 | 34829 ft | 488 kts | 140° |
| 2026-05-07 15:44 | 1.98971 | 142.41265 | 34829 ft | 488 kts | 140° |
| 2026-05-07 15:45 | 1.93667 | 142.45501 | 34826 ft | 488 kts | 140° |
| 2026-05-07 15:45 | 1.88367 | 142.49733 | 34829 ft | 488 kts | 140° |
| 2026-05-07 15:46 | 1.80404 | 142.56091 | 34832 ft | 488 kts | 140° |
| 2026-05-07 15:47 | 1.75105 | 142.60321 | 34828 ft | 488 kts | 140° |
| 2026-05-07 15:47 | 1.69804 | 142.64553 | 34831 ft | 487 kts | 140° |
| 2026-05-07 15:48 | 1.64503 | 142.68783 | 34829 ft | 487 kts | 140° |
| 2026-05-07 15:48 | 1.59206 | 142.73011 | 34831 ft | 487 kts | 140° |
| 2026-05-07 15:49 | 1.53906 | 142.77242 | 34834 ft | 487 kts | 140° |
| 2026-05-07 15:49 | 1.48602 | 142.81474 | 34830 ft | 487 kts | 140° |
| 2026-05-07 15:50 | 1.43306 | 142.85701 | 34834 ft | 486 kts | 140° |
| 2026-05-07 15:50 | 1.38047 | 142.89898 | 34834 ft | 486 kts | 140° |
| 2026-05-07 15:51 | 1.32759 | 142.94117 | 34834 ft | 486 kts | 140° |
| 2026-05-07 15:51 | 1.27468 | 142.98338 | 34830 ft | 486 kts | 140° |
| 2026-05-07 15:52 | 1.22184 | 143.02554 | 34832 ft | 486 kts | 140° |
| 2026-05-07 15:52 | 1.16902 | 143.06768 | 34833 ft | 486 kts | 140° |
| 2026-05-07 15:53 | 1.11611 | 143.10988 | 34837 ft | 486 kts | 140° |
| 2026-05-07 15:53 | 1.06310 | 143.15218 | 34836 ft | 487 kts | 140° |
| 2026-05-07 15:54 | 1.01011 | 143.19444 | 34837 ft | 487 kts | 140° |
| 2026-05-07 15:54 | 0.95702 | 143.23679 | 34836 ft | 488 kts | 140° |
| 2026-05-07 15:55 | 0.90389 | 143.27916 | 34836 ft | 488 kts | 140° |
| 2026-05-07 15:55 | 0.85072 | 143.32158 | 34838 ft | 489 kts | 140° |
| 2026-05-07 15:56 | 0.79755 | 143.36398 | 34837 ft | 489 kts | 140° |
| 2026-05-07 15:56 | 0.74425 | 143.40648 | 34834 ft | 490 kts | 140° |
| 2026-05-07 15:57 | 0.69126 | 143.44874 | 34840 ft | 490 kts | 140° |
| 2026-05-07 15:57 | 0.63787 | 143.49132 | 34838 ft | 490 kts | 140° |
| 2026-05-07 15:58 | 0.58457 | 143.53382 | 34839 ft | 491 kts | 140° |
| 2026-05-07 15:58 | 0.53112 | 143.57645 | 34841 ft | 491 kts | 140° |
| 2026-05-07 15:59 | 0.47774 | 143.61901 | 34839 ft | 491 kts | 140° |
| 2026-05-07 15:59 | 0.42433 | 143.66161 | 34834 ft | 491 kts | 140° |
| 2026-05-07 16:00 | 0.37084 | 143.70426 | 34837 ft | 491 kts | 140° |
| 2026-05-07 16:00 | 0.31746 | 143.74683 | 34837 ft | 491 kts | 140° |
| 2026-05-07 16:01 | 0.26403 | 143.78943 | 34838 ft | 490 kts | 140° |
| 2026-05-07 16:01 | 0.21069 | 143.83196 | 34837 ft | 490 kts | 140° |
| 2026-05-07 16:02 | 0.15734 | 143.87451 | 34841 ft | 490 kts | 140° |
| 2026-05-07 16:02 | 0.10396 | 143.91708 | 34842 ft | 490 kts | 140° |
| 2026-05-07 16:03 | 0.05062 | 143.95962 | 34841 ft | 491 kts | 140° |
| 2026-05-07 16:03 | -0.00838 | 143.99326 | 34844 ft | 493 kts | 160° |
| 2026-05-07 16:04 | -0.07595 | 144.00453 | 34850 ft | 495 kts | 177° |
| 2026-05-07 16:04 | -0.14468 | 144.00603 | 34845 ft | 498 kts | 178° |
| 2026-05-07 16:05 | -0.21412 | 144.00740 | 34845 ft | 499 kts | 177° |
| 2026-05-07 16:05 | -0.27187 | 144.00899 | 34850 ft | 500 kts | 177° |
| 2026-05-07 16:06 | -0.34152 | 144.01124 | 34845 ft | 501 kts | 176° |
| 2026-05-07 16:06 | -0.41128 | 144.01361 | 34840 ft | 500 kts | 176° |
| 2026-05-07 16:07 | -0.48122 | 144.01597 | 34842 ft | 500 kts | 176° |
| 2026-05-07 16:07 | -0.55075 | 144.01829 | 34842 ft | 499 kts | 176° |
| 2026-05-07 16:08 | -0.61976 | 144.02058 | 34839 ft | 499 kts | 176° |
| 2026-05-07 16:08 | -0.68909 | 144.02288 | 34839 ft | 499 kts | 176° |
| 2026-05-07 16:09 | -0.75852 | 144.02518 | 34841 ft | 499 kts | 176° |
| 2026-05-07 16:09 | -0.82786 | 144.02748 | 34840 ft | 499 kts | 176° |
| 2026-05-07 16:10 | -0.89748 | 144.02980 | 34841 ft | 499 kts | 176° |
| 2026-05-07 16:10 | -0.96697 | 144.03210 | 34837 ft | 500 kts | 176° |
| 2026-05-07 16:11 | -1.03649 | 144.03441 | 34841 ft | 500 kts | 176° |
| 2026-05-07 16:11 | -1.10615 | 144.03673 | 34840 ft | 500 kts | 176° |
| 2026-05-07 16:12 | -1.17545 | 144.03903 | 34836 ft | 501 kts | 176° |
| 2026-05-07 16:12 | -1.24516 | 144.04134 | 34839 ft | 501 kts | 176° |
| 2026-05-07 16:13 | -1.31494 | 144.04366 | 34838 ft | 502 kts | 176° |
| 2026-05-07 16:13 | -1.38479 | 144.04598 | 34840 ft | 502 kts | 176° |
| 2026-05-07 16:14 | -1.45464 | 144.04830 | 34839 ft | 502 kts | 176° |
| 2026-05-07 16:14 | -1.52463 | 144.05063 | 34841 ft | 502 kts | 176° |
| 2026-05-07 16:15 | -1.59461 | 144.05295 | 34842 ft | 502 kts | 176° |
| 2026-05-07 16:15 | -1.66442 | 144.05527 | 34840 ft | 502 kts | 176° |
| 2026-05-07 16:16 | -1.73424 | 144.05759 | 34841 ft | 502 kts | 176° |
| 2026-05-07 16:16 | -1.80436 | 144.05992 | 34841 ft | 503 kts | 176° |
| 2026-05-07 16:17 | -1.87434 | 144.06225 | 34841 ft | 503 kts | 176° |
| 2026-05-07 16:17 | -1.94425 | 144.06457 | 34842 ft | 503 kts | 176° |
| 2026-05-07 16:18 | -2.01377 | 144.06688 | 34839 ft | 503 kts | 176° |
| 2026-05-07 16:18 | -2.08386 | 144.06921 | 34841 ft | 503 kts | 176° |
| 2026-05-07 16:19 | -2.15390 | 144.07154 | 34840 ft | 503 kts | 176° |
| 2026-05-07 16:19 | -2.22395 | 144.07387 | 34843 ft | 503 kts | 176° |
| 2026-05-07 16:20 | -2.29403 | 144.07620 | 34841 ft | 503 kts | 176° |
| 2026-05-07 16:20 | -2.36403 | 144.07853 | 34843 ft | 504 kts | 176° |
| 2026-05-07 16:21 | -2.43380 | 144.08085 | 34840 ft | 504 kts | 176° |
| 2026-05-07 16:21 | -2.50441 | 144.08320 | 34843 ft | 504 kts | 176° |
| 2026-05-07 16:22 | -2.57445 | 144.08553 | 34841 ft | 504 kts | 176° |
| 2026-05-07 16:22 | -2.64469 | 144.08786 | 34841 ft | 504 kts | 176° |
| 2026-05-07 16:23 | -2.71445 | 144.09018 | 34842 ft | 504 kts | 176° |
| 2026-05-07 16:23 | -2.78453 | 144.09252 | 34842 ft | 504 kts | 176° |
| 2026-05-07 16:24 | -2.85359 | 144.09481 | 34840 ft | 504 kts | 176° |
| 2026-05-07 16:24 | -2.92454 | 144.09718 | 34845 ft | 504 kts | 176° |
| 2026-05-07 16:25 | -2.99463 | 144.09951 | 34843 ft | 504 kts | 177° |
| 2026-05-07 16:25 | -3.06426 | 144.10183 | 34842 ft | 504 kts | 177° |
| 2026-05-07 16:26 | -3.13444 | 144.10416 | 34839 ft | 504 kts | 176° |
| 2026-05-07 16:26 | -3.20455 | 144.10650 | 34845 ft | 504 kts | 177° |
| 2026-05-07 16:27 | -3.27490 | 144.10884 | 34837 ft | 505 kts | 177° |
| 2026-05-07 16:27 | -3.34523 | 144.11119 | 34842 ft | 505 kts | 177° |
| 2026-05-07 16:28 | -3.41550 | 144.11353 | 34840 ft | 505 kts | 177° |
| 2026-05-07 16:28 | -3.48584 | 144.11587 | 34844 ft | 505 kts | 177° |
| 2026-05-07 16:29 | -3.55611 | 144.11821 | 34846 ft | 505 kts | 177° |
| 2026-05-07 16:29 | -3.62649 | 144.12056 | 34845 ft | 505 kts | 177° |
| 2026-05-07 16:30 | -3.69670 | 144.12290 | 34847 ft | 505 kts | 177° |
| 2026-05-07 16:30 | -3.76698 | 144.12524 | 34846 ft | 505 kts | 177° |
| 2026-05-07 16:31 | -3.83728 | 144.12758 | 34848 ft | 505 kts | 177° |
| 2026-05-07 16:31 | -3.90762 | 144.12993 | 34846 ft | 505 kts | 177° |
| 2026-05-07 16:32 | -3.97785 | 144.13227 | 34849 ft | 505 kts | 177° |
| 2026-05-07 16:32 | -4.04826 | 144.13462 | 34848 ft | 505 kts | 177° |
| 2026-05-07 16:33 | -4.11822 | 144.13696 | 34908 ft | 508 kts | 177° |
| 2026-05-07 16:33 | -4.15365 | 144.13814 | 35168 ft | 508 kts | 177° |
| 2026-05-07 16:33 | -4.18888 | 144.13932 | 35511 ft | 505 kts | 177° |
| 2026-05-07 16:33 | -4.22403 | 144.14049 | 35858 ft | 503 kts | 177° |
| 2026-05-07 16:34 | -4.25899 | 144.14165 | 36176 ft | 502 kts | 177° |
| 2026-05-07 16:34 | -4.29391 | 144.14282 | 36448 ft | 502 kts | 177° |
| 2026-05-07 16:34 | -4.32884 | 144.14398 | 36700 ft | 502 kts | 177° |
| 2026-05-07 16:35 | -4.39905 | 144.14633 | 36827 ft | 505 kts | 177° |
| 2026-05-07 16:35 | -4.46909 | 144.14867 | 36844 ft | 502 kts | 177° |
| 2026-05-07 16:36 | -4.53882 | 144.15100 | 36851 ft | 500 kts | 177° |
| 2026-05-07 16:36 | -4.60780 | 144.15330 | 36859 ft | 499 kts | 177° |
| 2026-05-07 16:37 | -4.67727 | 144.15563 | 36866 ft | 499 kts | 177° |
| 2026-05-07 16:37 | -4.73502 | 144.15756 | 36876 ft | 499 kts | 177° |
| 2026-05-07 16:38 | -4.80499 | 144.15990 | 36883 ft | 500 kts | 177° |
| 2026-05-07 16:38 | -4.87459 | 144.16223 | 36889 ft | 501 kts | 177° |
| 2026-05-07 16:39 | -4.94439 | 144.16456 | 36907 ft | 503 kts | 177° |
| 2026-05-07 16:39 | -5.01445 | 144.16690 | 36914 ft | 504 kts | 177° |
| 2026-05-07 16:40 | -5.08409 | 144.16923 | 36916 ft | 504 kts | 178° |
| 2026-05-07 16:40 | -5.15417 | 144.17158 | 36932 ft | 504 kts | 177° |
| 2026-05-07 16:41 | -5.22436 | 144.17393 | 36942 ft | 503 kts | 177° |
| 2026-05-07 16:41 | -5.29433 | 144.17627 | 36946 ft | 503 kts | 178° |
| 2026-05-07 16:42 | -5.36432 | 144.17861 | 36960 ft | 503 kts | 178° |
| 2026-05-07 16:42 | -5.43435 | 144.18096 | 36964 ft | 503 kts | 178° |
| 2026-05-07 16:43 | -5.50423 | 144.18330 | 36966 ft | 503 kts | 178° |
| 2026-05-07 16:43 | -5.57426 | 144.18565 | 36986 ft | 502 kts | 178° |
| 2026-05-07 16:44 | -5.64420 | 144.18799 | 36992 ft | 502 kts | 178° |
| 2026-05-07 16:44 | -5.71401 | 144.19033 | 36998 ft | 502 kts | 178° |
| 2026-05-07 16:45 | -5.78383 | 144.19268 | 37011 ft | 502 kts | 178° |
| 2026-05-07 16:45 | -5.85322 | 144.19500 | 37017 ft | 501 kts | 178° |
| 2026-05-07 16:46 | -5.92296 | 144.19734 | 37019 ft | 501 kts | 178° |
| 2026-05-07 16:46 | -5.99286 | 144.19969 | 37023 ft | 501 kts | 178° |
| 2026-05-07 16:47 | -6.06258 | 144.20203 | 37021 ft | 501 kts | 178° |
| 2026-05-07 16:47 | -6.13229 | 144.20437 | 37016 ft | 502 kts | 178° |
| 2026-05-07 16:48 | -6.20218 | 144.20672 | 37014 ft | 502 kts | 178° |
| 2026-05-07 16:48 | -6.27212 | 144.20907 | 37004 ft | 503 kts | 178° |
| 2026-05-07 16:49 | -6.34210 | 144.21142 | 36999 ft | 503 kts | 178° |
| 2026-05-07 16:49 | -6.41209 | 144.21377 | 36991 ft | 503 kts | 178° |
| 2026-05-07 16:50 | -6.48170 | 144.21611 | 36984 ft | 503 kts | 178° |
| 2026-05-07 16:50 | -6.55162 | 144.21846 | 36978 ft | 503 kts | 178° |
| 2026-05-07 16:51 | -6.62170 | 144.22082 | 36975 ft | 503 kts | 178° |
| 2026-05-07 16:51 | -6.69169 | 144.22318 | 36969 ft | 503 kts | 178° |
| 2026-05-07 16:52 | -6.76166 | 144.22553 | 36949 ft | 503 kts | 178° |
| 2026-05-07 16:52 | -6.83166 | 144.22789 | 36948 ft | 503 kts | 178° |
| 2026-05-07 16:53 | -6.90174 | 144.23025 | 36942 ft | 503 kts | 178° |
| 2026-05-07 16:53 | -6.97190 | 144.23261 | 36928 ft | 504 kts | 178° |
| 2026-05-07 16:54 | -7.04163 | 144.23496 | 36923 ft | 504 kts | 178° |
| 2026-05-07 16:54 | -7.11178 | 144.23733 | 36916 ft | 504 kts | 178° |
| 2026-05-07 16:55 | -7.18186 | 144.23969 | 36908 ft | 504 kts | 178° |
| 2026-05-07 16:55 | -7.25201 | 144.24206 | 36907 ft | 504 kts | 178° |
| 2026-05-07 16:56 | -7.32208 | 144.24442 | 36898 ft | 504 kts | 178° |
| 2026-05-07 16:56 | -7.42719 | 144.24826 | 36901 ft | 503 kts | 176° |
| 2026-05-07 16:57 | -7.49658 | 144.25749 | 36901 ft | 503 kts | 171° |
| 2026-05-07 16:57 | -7.56577 | 144.26871 | 36896 ft | 503 kts | 171° |
| 2026-05-07 16:58 | -7.63482 | 144.27978 | 36897 ft | 502 kts | 171° |
| 2026-05-07 16:58 | -7.70384 | 144.29054 | 36892 ft | 502 kts | 171° |
| 2026-05-07 16:59 | -7.77285 | 144.30116 | 36892 ft | 501 kts | 171° |
| 2026-05-07 16:59 | -7.84194 | 144.31179 | 36894 ft | 501 kts | 171° |
| 2026-05-07 17:00 | -7.91089 | 144.32242 | 36895 ft | 501 kts | 172° |
| 2026-05-07 17:00 | -7.97988 | 144.33306 | 36892 ft | 501 kts | 172° |
| 2026-05-07 17:01 | -8.04893 | 144.34373 | 36893 ft | 501 kts | 172° |
| 2026-05-07 17:01 | -8.11797 | 144.35439 | 36891 ft | 502 kts | 172° |
| 2026-05-07 17:02 | -8.18702 | 144.36506 | 36890 ft | 502 kts | 172° |
| 2026-05-07 17:02 | -8.25626 | 144.37576 | 36892 ft | 503 kts | 172° |
| 2026-05-07 17:03 | -8.32546 | 144.38646 | 36892 ft | 504 kts | 172° |
| 2026-05-07 17:03 | -8.39440 | 144.39713 | 36889 ft | 504 kts | 172° |
| 2026-05-07 17:04 | -8.46384 | 144.40787 | 36890 ft | 504 kts | 172° |
| 2026-05-07 17:04 | -8.53339 | 144.41864 | 36889 ft | 505 kts | 172° |
| 2026-05-07 17:05 | -8.60284 | 144.42939 | 36896 ft | 505 kts | 172° |
| 2026-05-07 17:05 | -8.67244 | 144.44017 | 36894 ft | 505 kts | 172° |
| 2026-05-07 17:06 | -8.74205 | 144.45096 | 36889 ft | 505 kts | 172° |
| 2026-05-07 17:06 | -8.81121 | 144.46168 | 36891 ft | 505 kts | 172° |
| 2026-05-07 17:07 | -8.88067 | 144.47245 | 36890 ft | 505 kts | 172° |
| 2026-05-07 17:07 | -8.95016 | 144.48324 | 36888 ft | 505 kts | 172° |
| 2026-05-07 17:08 | -9.01965 | 144.49402 | 36894 ft | 504 kts | 172° |
| 2026-05-07 17:08 | -9.08898 | 144.50478 | 36893 ft | 504 kts | 172° |
| 2026-05-07 17:09 | -9.15837 | 144.51556 | 36893 ft | 504 kts | 172° |
| 2026-05-07 17:09 | -9.22768 | 144.52633 | 36893 ft | 503 kts | 173° |
| 2026-05-07 17:10 | -9.29702 | 144.53711 | 36895 ft | 503 kts | 173° |
| 2026-05-07 17:10 | -9.36590 | 144.54782 | 36896 ft | 503 kts | 173° |
| 2026-05-07 17:11 | -9.43511 | 144.55859 | 36896 ft | 503 kts | 173° |
| 2026-05-07 17:11 | -9.50434 | 144.56936 | 36896 ft | 503 kts | 173° |
| 2026-05-07 17:12 | -9.57359 | 144.58014 | 36897 ft | 502 kts | 173° |
| 2026-05-07 17:12 | -9.64281 | 144.59093 | 36899 ft | 502 kts | 173° |
| 2026-05-07 17:13 | -9.71199 | 144.60170 | 36896 ft | 503 kts | 173° |
| 2026-05-07 17:13 | -9.76966 | 144.61069 | 36899 ft | 502 kts | 173° |
| 2026-05-07 17:14 | -9.83899 | 144.62151 | 36898 ft | 502 kts | 173° |
| 2026-05-07 17:14 | -9.90812 | 144.63229 | 36899 ft | 502 kts | 173° |
| 2026-05-07 17:15 | -9.97705 | 144.64305 | 36898 ft | 502 kts | 173° |
| 2026-05-07 17:15 | -10.04640 | 144.65388 | 36898 ft | 502 kts | 173° |
| 2026-05-07 17:16 | -10.11559 | 144.66469 | 36898 ft | 502 kts | 173° |
| 2026-05-07 17:16 | -10.18483 | 144.67551 | 36901 ft | 502 kts | 173° |
| 2026-05-07 17:17 | -10.25404 | 144.68633 | 36900 ft | 502 kts | 173° |
| 2026-05-07 17:17 | -10.32314 | 144.69714 | 36903 ft | 503 kts | 173° |
| 2026-05-07 17:18 | -10.39238 | 144.70797 | 36903 ft | 503 kts | 173° |
| 2026-05-07 17:18 | -10.46162 | 144.71881 | 36901 ft | 503 kts | 173° |
| 2026-05-07 17:19 | -10.53099 | 144.72968 | 36901 ft | 503 kts | 173° |
| 2026-05-07 17:19 | -10.60025 | 144.74053 | 36904 ft | 503 kts | 173° |
| 2026-05-07 17:20 | -10.66942 | 144.75137 | 36902 ft | 503 kts | 173° |
| 2026-05-07 17:20 | -10.73866 | 144.76223 | 36903 ft | 503 kts | 173° |
| 2026-05-07 17:21 | -10.80776 | 144.77308 | 36903 ft | 503 kts | 173° |
| 2026-05-07 17:21 | -10.87704 | 144.78395 | 36904 ft | 503 kts | 174° |
| 2026-05-07 17:22 | -10.94619 | 144.79481 | 36905 ft | 503 kts | 174° |
| 2026-05-07 17:22 | -11.01533 | 144.80568 | 36907 ft | 503 kts | 174° |
| 2026-05-07 17:23 | -11.08472 | 144.81659 | 36903 ft | 503 kts | 174° |
| 2026-05-07 17:23 | -11.15345 | 144.82740 | 36908 ft | 503 kts | 174° |
| 2026-05-07 17:24 | -11.22261 | 144.83828 | 36904 ft | 503 kts | 174° |
| 2026-05-07 17:24 | -11.29183 | 144.84918 | 36908 ft | 503 kts | 174° |
| 2026-05-07 17:25 | -11.36106 | 144.86008 | 36906 ft | 503 kts | 174° |
| 2026-05-07 17:25 | -11.43025 | 144.87099 | 36908 ft | 503 kts | 174° |
| 2026-05-07 17:26 | -11.49941 | 144.88189 | 36910 ft | 503 kts | 174° |
| 2026-05-07 17:26 | -11.56879 | 144.89284 | 36905 ft | 503 kts | 174° |
| 2026-05-07 17:27 | -11.63797 | 144.90376 | 36904 ft | 503 kts | 174° |
| 2026-05-07 17:27 | -11.70720 | 144.91469 | 36912 ft | 503 kts | 174° |
| 2026-05-07 17:28 | -11.77666 | 144.92566 | 36911 ft | 503 kts | 174° |
| 2026-05-07 17:28 | -11.84598 | 144.93662 | 36907 ft | 503 kts | 174° |
| 2026-05-07 17:29 | -11.91517 | 144.94757 | 36912 ft | 503 kts | 174° |
| 2026-05-07 17:29 | -11.98458 | 144.95855 | 36910 ft | 504 kts | 174° |
| 2026-05-07 17:30 | -12.05387 | 144.96951 | 36908 ft | 504 kts | 174° |
| 2026-05-07 17:30 | -12.12316 | 144.98044 | 36914 ft | 504 kts | 174° |
| 2026-05-07 17:31 | -12.19264 | 144.99141 | 36913 ft | 504 kts | 174° |
| 2026-05-07 17:31 | -12.26201 | 145.00238 | 36917 ft | 504 kts | 174° |
| 2026-05-07 17:32 | -12.33131 | 145.01334 | 36917 ft | 504 kts | 174° |
| 2026-05-07 17:32 | -12.38950 | 145.02255 | 36916 ft | 504 kts | 174° |
| 2026-05-07 17:33 | -12.47025 | 145.03534 | 36914 ft | 505 kts | 174° |
| 2026-05-07 17:33 | -12.53964 | 145.04634 | 36920 ft | 505 kts | 174° |
| 2026-05-07 17:34 | -12.60916 | 145.05736 | 36920 ft | 505 kts | 174° |
| 2026-05-07 17:34 | -12.67914 | 145.06846 | 36917 ft | 505 kts | 175° |
| 2026-05-07 17:35 | -12.74821 | 145.07942 | 36917 ft | 506 kts | 175° |
| 2026-05-07 17:35 | -12.81830 | 145.09056 | 36920 ft | 506 kts | 175° |
| 2026-05-07 17:36 | -12.88752 | 145.10155 | 36920 ft | 506 kts | 175° |
| 2026-05-07 17:36 | -12.95717 | 145.11263 | 36924 ft | 506 kts | 175° |
| 2026-05-07 17:37 | -13.02681 | 145.12371 | 36924 ft | 506 kts | 175° |
| 2026-05-07 17:37 | -13.09644 | 145.13479 | 36921 ft | 506 kts | 175° |
| 2026-05-07 17:38 | -13.16609 | 145.14588 | 36921 ft | 507 kts | 175° |
| 2026-05-07 17:38 | -13.23588 | 145.15700 | 36924 ft | 507 kts | 175° |
| 2026-05-07 17:39 | -13.30570 | 145.16813 | 36926 ft | 507 kts | 175° |
| 2026-05-07 17:39 | -13.37546 | 145.17926 | 36924 ft | 507 kts | 175° |
| 2026-05-07 17:40 | -13.44533 | 145.19042 | 36928 ft | 507 kts | 175° |
| 2026-05-07 17:40 | -13.51496 | 145.20154 | 36930 ft | 508 kts | 175° |
| 2026-05-07 17:41 | -13.58488 | 145.21271 | 36931 ft | 508 kts | 175° |
| 2026-05-07 17:41 | -13.64352 | 145.22209 | 36926 ft | 508 kts | 175° |
| 2026-05-07 17:42 | -13.71338 | 145.23327 | 36929 ft | 508 kts | 175° |
| 2026-05-07 17:42 | -13.78324 | 145.24445 | 36929 ft | 508 kts | 175° |
| 2026-05-07 17:43 | -13.85323 | 145.25567 | 36928 ft | 508 kts | 175° |
| 2026-05-07 17:43 | -13.92320 | 145.26688 | 36930 ft | 509 kts | 175° |
| 2026-05-07 17:44 | -13.99317 | 145.27811 | 36931 ft | 509 kts | 175° |
| 2026-05-07 17:44 | -14.06321 | 145.28935 | 36933 ft | 509 kts | 175° |
| 2026-05-07 17:45 | -14.13324 | 145.30059 | 36932 ft | 509 kts | 175° |
| 2026-05-07 17:45 | -14.20325 | 145.31184 | 36937 ft | 509 kts | 175° |
| 2026-05-07 17:46 | -14.27330 | 145.32311 | 36939 ft | 509 kts | 176° |
| 2026-05-07 17:46 | -14.34350 | 145.33441 | 36922 ft | 510 kts | 176° |
| 2026-05-07 17:47 | -14.41364 | 145.34571 | 36929 ft | 510 kts | 176° |
| 2026-05-07 17:47 | -14.48386 | 145.35705 | 36948 ft | 510 kts | 176° |
| 2026-05-07 17:48 | -14.55420 | 145.36844 | 36944 ft | 511 kts | 176° |
| 2026-05-07 17:48 | -14.62445 | 145.37981 | 36942 ft | 511 kts | 176° |
| 2026-05-07 17:49 | -14.69483 | 145.39122 | 36941 ft | 511 kts | 176° |
| 2026-05-07 17:49 | -14.76517 | 145.40262 | 36943 ft | 511 kts | 176° |
| 2026-05-07 17:50 | -14.83555 | 145.41403 | 36943 ft | 511 kts | 176° |
| 2026-05-07 17:50 | -14.90593 | 145.42546 | 36945 ft | 511 kts | 176° |
| 2026-05-07 17:51 | -14.97625 | 145.43688 | 36947 ft | 511 kts | 176° |
| 2026-05-07 17:51 | -15.04661 | 145.44832 | 36951 ft | 511 kts | 176° |
| 2026-05-07 17:52 | -15.11694 | 145.45976 | 36951 ft | 512 kts | 176° |
| 2026-05-07 17:52 | -15.18723 | 145.47120 | 36951 ft | 512 kts | 176° |
| 2026-05-07 17:53 | -15.25779 | 145.48269 | 36952 ft | 512 kts | 176° |
| 2026-05-07 17:53 | -15.32825 | 145.49417 | 36955 ft | 512 kts | 176° |
| 2026-05-07 17:54 | -15.39858 | 145.50564 | 36956 ft | 512 kts | 176° |
| 2026-05-07 17:54 | -15.46893 | 145.51712 | 36957 ft | 512 kts | 176° |
| 2026-05-07 17:55 | -15.53954 | 145.52865 | 36959 ft | 513 kts | 176° |
| 2026-05-07 17:55 | -15.61000 | 145.54017 | 36962 ft | 513 kts | 176° |
| 2026-05-07 17:56 | -15.68063 | 145.55171 | 36966 ft | 514 kts | 176° |
| 2026-05-07 17:56 | -15.75125 | 145.56327 | 36967 ft | 514 kts | 176° |
| 2026-05-07 17:57 | -15.81013 | 145.57292 | 36971 ft | 514 kts | 176° |
| 2026-05-07 17:57 | -15.89290 | 145.58648 | 36967 ft | 515 kts | 176° |
| 2026-05-07 17:58 | -15.96414 | 145.59817 | 36973 ft | 515 kts | 176° |
| 2026-05-07 17:58 | -16.03461 | 145.60974 | 36973 ft | 516 kts | 176° |
| 2026-05-07 17:59 | -16.10569 | 145.62139 | 36980 ft | 516 kts | 176° |
| 2026-05-07 17:59 | -16.17666 | 145.63303 | 36980 ft | 516 kts | 177° |
| 2026-05-07 18:00 | -16.24765 | 145.64469 | 36981 ft | 516 kts | 177° |
| 2026-05-07 18:00 | -16.31874 | 145.65638 | 36981 ft | 516 kts | 177° |
| 2026-05-07 18:01 | -16.38992 | 145.66809 | 36984 ft | 516 kts | 177° |
| 2026-05-07 18:01 | -16.46094 | 145.67978 | 36988 ft | 517 kts | 177° |
| 2026-05-07 18:02 | -16.56759 | 145.69736 | 36988 ft | 517 kts | 177° |
| 2026-05-07 18:03 | -16.63866 | 145.70908 | 36977 ft | 517 kts | 177° |
| 2026-05-07 18:03 | -16.70974 | 145.72082 | 36977 ft | 517 kts | 177° |
| 2026-05-07 18:04 | -16.78096 | 145.73258 | 36973 ft | 517 kts | 177° |
| 2026-05-07 18:04 | -16.85068 | 145.75195 | 36984 ft | 529 kts | 163° |
| 2026-05-07 18:05 | -16.91678 | 145.78817 | 36974 ft | 538 kts | 151° |
| 2026-05-07 18:05 | -16.97889 | 145.83212 | 36990 ft | 539 kts | 149° |
| 2026-05-07 18:06 | -17.04086 | 145.87649 | 36977 ft | 540 kts | 150° |
| 2026-05-07 18:06 | -17.10313 | 145.92034 | 36987 ft | 539 kts | 150° |
| 2026-05-07 18:07 | -17.16551 | 145.96384 | 37006 ft | 538 kts | 150° |
| 2026-05-07 18:07 | -17.22784 | 146.00726 | 37006 ft | 538 kts | 150° |
| 2026-05-07 18:08 | -17.29014 | 146.05076 | 37003 ft | 538 kts | 150° |
| 2026-05-07 18:08 | -17.34241 | 146.08731 | 37006 ft | 538 kts | 150° |
| 2026-05-07 18:09 | -17.40469 | 146.13091 | 37005 ft | 539 kts | 150° |
| 2026-05-07 18:09 | -17.46718 | 146.17468 | 37007 ft | 539 kts | 150° |
| 2026-05-07 18:10 | -17.52928 | 146.21822 | 37007 ft | 540 kts | 150° |
| 2026-05-07 18:10 | -17.59220 | 146.26237 | 37006 ft | 540 kts | 150° |
| 2026-05-07 18:11 | -17.65465 | 146.30623 | 37005 ft | 540 kts | 150° |
| 2026-05-07 18:11 | -17.71701 | 146.35006 | 37009 ft | 541 kts | 150° |
| 2026-05-07 18:12 | -17.77968 | 146.39414 | 37006 ft | 541 kts | 150° |
| 2026-05-07 18:12 | -17.84219 | 146.43816 | 37007 ft | 541 kts | 150° |
| 2026-05-07 18:13 | -17.90495 | 146.48238 | 37006 ft | 541 kts | 150° |
| 2026-05-07 18:13 | -17.96720 | 146.52629 | 37006 ft | 542 kts | 150° |
| 2026-05-07 18:14 | -18.02980 | 146.57048 | 37003 ft | 542 kts | 150° |
| 2026-05-07 18:14 | -18.09245 | 146.61475 | 37005 ft | 542 kts | 150° |
| 2026-05-07 18:15 | -18.15509 | 146.65904 | 37009 ft | 542 kts | 150° |
| 2026-05-07 18:15 | -18.21771 | 146.70338 | 37009 ft | 543 kts | 150° |
| 2026-05-07 18:16 | -18.28049 | 146.74785 | 37008 ft | 543 kts | 150° |
| 2026-05-07 18:16 | -18.34524 | 146.78847 | 37013 ft | 536 kts | 160° |
| 2026-05-07 18:17 | -18.41438 | 146.81702 | 37014 ft | 527 kts | 171° |
| 2026-05-07 18:17 | -18.48525 | 146.83595 | 37024 ft | 524 kts | 173° |
| 2026-05-07 18:18 | -18.55630 | 146.85400 | 37016 ft | 526 kts | 173° |
| 2026-05-07 18:18 | -18.62748 | 146.87252 | 37020 ft | 527 kts | 173° |
| 2026-05-07 18:19 | -18.69871 | 146.89143 | 37016 ft | 528 kts | 173° |
| 2026-05-07 18:19 | -18.77024 | 146.91054 | 37018 ft | 529 kts | 173° |
| 2026-05-07 18:20 | -18.84154 | 146.92957 | 37021 ft | 529 kts | 173° |
| 2026-05-07 18:20 | -18.91300 | 146.94863 | 37025 ft | 529 kts | 173° |
| 2026-05-07 18:21 | -18.98439 | 146.96768 | 37022 ft | 529 kts | 173° |
| 2026-05-07 18:21 | -19.05577 | 146.98675 | 37026 ft | 529 kts | 173° |
| 2026-05-07 18:22 | -19.12726 | 147.00586 | 37026 ft | 529 kts | 173° |
| 2026-05-07 18:22 | -19.19878 | 147.02500 | 37020 ft | 529 kts | 173° |
| 2026-05-07 18:23 | -19.27021 | 147.04416 | 37034 ft | 528 kts | 173° |
| 2026-05-07 18:23 | -19.34147 | 147.06324 | 37036 ft | 528 kts | 173° |
| 2026-05-07 18:24 | -19.41280 | 147.08236 | 37037 ft | 529 kts | 173° |
| 2026-05-07 18:24 | -19.48416 | 147.10154 | 37049 ft | 529 kts | 173° |
| 2026-05-07 18:25 | -19.55563 | 147.12075 | 37046 ft | 530 kts | 173° |
| 2026-05-07 18:25 | -19.62712 | 147.13999 | 37043 ft | 531 kts | 173° |
| 2026-05-07 18:26 | -19.69889 | 147.15932 | 37043 ft | 531 kts | 173° |
| 2026-05-07 18:26 | -19.77038 | 147.17860 | 37053 ft | 532 kts | 173° |
| 2026-05-07 18:27 | -19.84300 | 147.19819 | 37039 ft | 532 kts | 173° |
| 2026-05-07 18:27 | -19.91436 | 147.21743 | 37043 ft | 533 kts | 173° |
| 2026-05-07 18:28 | -19.98630 | 147.23684 | 37049 ft | 533 kts | 173° |
| 2026-05-07 18:28 | -20.05836 | 147.25630 | 37058 ft | 533 kts | 173° |
| 2026-05-07 18:29 | -20.13015 | 147.27572 | 37055 ft | 533 kts | 173° |
| 2026-05-07 18:29 | -20.20206 | 147.29520 | 37057 ft | 533 kts | 173° |
| 2026-05-07 18:30 | -20.27404 | 147.31470 | 37062 ft | 533 kts | 173° |
| 2026-05-07 18:30 | -20.34601 | 147.33422 | 37071 ft | 533 kts | 173° |
| 2026-05-07 18:31 | -20.41791 | 147.35373 | 37072 ft | 534 kts | 173° |
| 2026-05-07 18:31 | -20.48961 | 147.37323 | 37073 ft | 534 kts | 173° |
| 2026-05-07 18:32 | -20.56219 | 147.39298 | 37080 ft | 535 kts | 173° |
| 2026-05-07 18:32 | -20.63433 | 147.41261 | 37073 ft | 535 kts | 174° |
| 2026-05-07 18:33 | -20.70649 | 147.43230 | 37088 ft | 534 kts | 173° |
| 2026-05-07 18:33 | -20.77858 | 147.45196 | 37080 ft | 535 kts | 174° |
| 2026-05-07 18:34 | -20.85083 | 147.47168 | 37094 ft | 536 kts | 174° |
| 2026-05-07 18:34 | -20.92307 | 147.49142 | 37096 ft | 536 kts | 174° |
| 2026-05-07 18:35 | -20.99541 | 147.51123 | 37095 ft | 537 kts | 174° |
| 2026-05-07 18:35 | -21.06785 | 147.53108 | 37086 ft | 537 kts | 174° |
| 2026-05-07 18:36 | -21.12848 | 147.54771 | 37109 ft | 536 kts | 174° |
| 2026-05-07 18:36 | -21.20080 | 147.56755 | 37103 ft | 537 kts | 174° |
| 2026-05-07 18:37 | -21.27325 | 147.58745 | 37111 ft | 537 kts | 174° |
| 2026-05-07 18:37 | -21.34569 | 147.60737 | 37111 ft | 537 kts | 174° |
| 2026-05-07 18:38 | -21.41813 | 147.62731 | 37110 ft | 537 kts | 174° |
| 2026-05-07 18:38 | -21.49078 | 147.64733 | 37117 ft | 537 kts | 174° |
| 2026-05-07 18:39 | -21.56310 | 147.66729 | 37119 ft | 537 kts | 174° |
| 2026-05-07 18:39 | -21.63563 | 147.68731 | 37120 ft | 538 kts | 174° |
| 2026-05-07 18:40 | -21.70812 | 147.70734 | 37123 ft | 538 kts | 174° |
| 2026-05-07 18:40 | -21.78074 | 147.72744 | 37118 ft | 538 kts | 174° |
| 2026-05-07 18:41 | -21.85330 | 147.74754 | 37124 ft | 539 kts | 174° |
| 2026-05-07 18:41 | -21.92603 | 147.76770 | 37130 ft | 539 kts | 174° |
| 2026-05-07 18:42 | -21.99875 | 147.78789 | 37124 ft | 539 kts | 174° |
| 2026-05-07 18:42 | -22.07149 | 147.80811 | 37127 ft | 539 kts | 174° |
| 2026-05-07 18:43 | -22.14453 | 147.82842 | 37135 ft | 539 kts | 174° |
| 2026-05-07 18:43 | -22.21744 | 147.84872 | 37134 ft | 540 kts | 175° |
| 2026-05-07 18:44 | -22.29024 | 147.86902 | 37144 ft | 540 kts | 175° |
| 2026-05-07 18:44 | -22.36314 | 147.88936 | 37142 ft | 540 kts | 175° |
| 2026-05-07 18:45 | -22.43590 | 147.90970 | 37144 ft | 540 kts | 175° |
| 2026-05-07 18:45 | -22.50870 | 147.93006 | 37151 ft | 540 kts | 175° |
| 2026-05-07 18:46 | -22.58169 | 147.95049 | 37163 ft | 540 kts | 175° |
| 2026-05-07 18:46 | -22.65435 | 147.97086 | 37162 ft | 540 kts | 175° |
| 2026-05-07 18:47 | -22.72706 | 147.99127 | 37156 ft | 539 kts | 175° |
| 2026-05-07 18:47 | -22.79984 | 148.01171 | 37164 ft | 539 kts | 175° |
| 2026-05-07 18:48 | -22.87258 | 148.03217 | 37163 ft | 539 kts | 175° |
| 2026-05-07 18:48 | -22.94506 | 148.05257 | 37165 ft | 538 kts | 175° |
| 2026-05-07 18:49 | -23.01766 | 148.07303 | 37169 ft | 538 kts | 175° |
| 2026-05-07 18:49 | -23.09059 | 148.09362 | 37161 ft | 538 kts | 175° |
| 2026-05-07 18:50 | -23.16300 | 148.11408 | 37162 ft | 538 kts | 175° |
| 2026-05-07 18:50 | -23.23550 | 148.13459 | 37170 ft | 538 kts | 175° |
| 2026-05-07 18:51 | -23.30805 | 148.15512 | 37170 ft | 538 kts | 175° |
| 2026-05-07 18:51 | -23.38048 | 148.17565 | 37172 ft | 538 kts | 175° |
| 2026-05-07 18:52 | -23.45260 | 148.19612 | 37170 ft | 538 kts | 175° |
| 2026-05-07 18:52 | -23.52509 | 148.21672 | 37182 ft | 538 kts | 175° |
| 2026-05-07 18:53 | -23.59760 | 148.23735 | 37183 ft | 538 kts | 175° |
| 2026-05-07 18:53 | -23.67060 | 148.25814 | 37181 ft | 538 kts | 175° |
| 2026-05-07 18:54 | -23.74307 | 148.27881 | 37190 ft | 537 kts | 175° |
| 2026-05-07 18:54 | -23.81545 | 148.29947 | 37183 ft | 537 kts | 175° |
| 2026-05-07 18:55 | -23.88784 | 148.32016 | 37194 ft | 536 kts | 175° |
| 2026-05-07 18:55 | -23.96021 | 148.34086 | 37195 ft | 536 kts | 175° |
| 2026-05-07 18:56 | -24.03237 | 148.36153 | 37193 ft | 536 kts | 175° |
| 2026-05-07 18:56 | -24.10447 | 148.38221 | 37188 ft | 535 kts | 175° |
| 2026-05-07 18:57 | -24.17655 | 148.40290 | 37212 ft | 535 kts | 175° |
| 2026-05-07 18:57 | -24.24855 | 148.42359 | 37210 ft | 535 kts | 175° |
| 2026-05-07 18:58 | -24.32054 | 148.44431 | 37212 ft | 535 kts | 175° |
| 2026-05-07 18:58 | -24.39304 | 148.46520 | 37218 ft | 534 kts | 175° |
| 2026-05-07 18:59 | -24.46500 | 148.48596 | 37225 ft | 534 kts | 175° |
| 2026-05-07 18:59 | -24.53660 | 148.50663 | 37224 ft | 534 kts | 175° |
| 2026-05-07 19:00 | -24.60853 | 148.52743 | 37226 ft | 534 kts | 175° |
| 2026-05-07 19:00 | -24.66835 | 148.54474 | 37234 ft | 534 kts | 175° |
| 2026-05-07 19:01 | -24.74078 | 148.56573 | 37230 ft | 534 kts | 175° |
| 2026-05-07 19:01 | -24.81273 | 148.58661 | 37239 ft | 534 kts | 175° |
| 2026-05-07 19:02 | -24.88459 | 148.60749 | 37239 ft | 534 kts | 175° |
| 2026-05-07 19:02 | -24.95694 | 148.62853 | 37245 ft | 533 kts | 175° |
| 2026-05-07 19:03 | -25.02887 | 148.64947 | 37249 ft | 533 kts | 175° |
| 2026-05-07 19:03 | -25.10058 | 148.67037 | 37257 ft | 533 kts | 175° |
| 2026-05-07 19:04 | -25.17238 | 148.69133 | 37262 ft | 533 kts | 175° |
| 2026-05-07 19:04 | -25.24364 | 148.71216 | 37285 ft | 533 kts | 175° |
| 2026-05-07 19:05 | -25.31539 | 148.73315 | 37272 ft | 533 kts | 175° |
| 2026-05-07 19:05 | -25.38751 | 148.75427 | 37279 ft | 533 kts | 175° |
| 2026-05-07 19:06 | -25.45931 | 148.77534 | 37288 ft | 533 kts | 175° |
| 2026-05-07 19:06 | -25.56687 | 148.80694 | 37283 ft | 532 kts | 175° |
| 2026-05-07 19:07 | -25.63810 | 148.82790 | 37287 ft | 532 kts | 175° |
| 2026-05-07 19:07 | -25.70976 | 148.84904 | 37288 ft | 532 kts | 175° |
| 2026-05-07 19:08 | -25.78124 | 148.87016 | 37294 ft | 531 kts | 175° |
| 2026-05-07 19:08 | -25.85286 | 148.89136 | 37290 ft | 531 kts | 175° |
| 2026-05-07 19:09 | -25.92383 | 148.91238 | 37291 ft | 531 kts | 175° |
| 2026-05-07 19:09 | -25.99534 | 148.93359 | 37289 ft | 531 kts | 175° |
| 2026-05-07 19:10 | -26.06684 | 148.95483 | 37293 ft | 531 kts | 175° |
| 2026-05-07 19:10 | -26.13871 | 148.97621 | 37302 ft | 531 kts | 175° |
| 2026-05-07 19:11 | -26.21013 | 148.99747 | 37294 ft | 531 kts | 175° |
| 2026-05-07 19:11 | -26.28151 | 149.01876 | 37296 ft | 531 kts | 175° |
| 2026-05-07 19:12 | -26.35283 | 149.04005 | 37294 ft | 530 kts | 175° |
| 2026-05-07 19:12 | -26.42466 | 149.06152 | 37298 ft | 530 kts | 175° |
| 2026-05-07 19:13 | -26.49601 | 149.08311 | 37294 ft | 532 kts | 174° |
| 2026-05-07 19:13 | -26.56670 | 149.10698 | 37295 ft | 534 kts | 172° |
| 2026-05-07 19:14 | -26.63761 | 149.13187 | 37292 ft | 534 kts | 173° |
| 2026-05-07 19:14 | -26.70849 | 149.15650 | 37295 ft | 533 kts | 173° |
| 2026-05-07 19:15 | -26.77941 | 149.18085 | 37289 ft | 533 kts | 173° |
| 2026-05-07 19:15 | -26.85077 | 149.20530 | 37293 ft | 532 kts | 173° |
| 2026-05-07 19:16 | -26.92129 | 149.22950 | 37293 ft | 533 kts | 173° |
| 2026-05-07 19:16 | -26.99253 | 149.25400 | 37297 ft | 533 kts | 173° |
| 2026-05-07 19:17 | -27.06354 | 149.27848 | 37295 ft | 533 kts | 173° |
| 2026-05-07 19:17 | -27.13444 | 149.30294 | 37296 ft | 533 kts | 173° |
| 2026-05-07 19:18 | -27.20535 | 149.32744 | 37291 ft | 533 kts | 173° |
| 2026-05-07 19:18 | -27.27623 | 149.35197 | 37295 ft | 533 kts | 173° |
| 2026-05-07 19:19 | -27.34671 | 149.37638 | 37291 ft | 532 kts | 173° |
| 2026-05-07 19:19 | -27.41747 | 149.40093 | 37296 ft | 532 kts | 173° |
| 2026-05-07 19:20 | -27.48870 | 149.42567 | 37297 ft | 532 kts | 173° |
| 2026-05-07 19:20 | -27.55943 | 149.45027 | 37294 ft | 531 kts | 173° |
| 2026-05-07 19:21 | -27.63000 | 149.47486 | 37291 ft | 531 kts | 173° |
| 2026-05-07 19:21 | -27.70066 | 149.49950 | 37290 ft | 531 kts | 173° |
| 2026-05-07 19:22 | -27.77111 | 149.52411 | 37293 ft | 530 kts | 173° |
| 2026-05-07 19:22 | -27.84172 | 149.54880 | 37295 ft | 530 kts | 173° |
| 2026-05-07 19:23 | -27.91201 | 149.57341 | 37298 ft | 530 kts | 173° |
| 2026-05-07 19:23 | -27.98277 | 149.59822 | 37299 ft | 530 kts | 173° |
| 2026-05-07 19:24 | -28.05257 | 149.62274 | 37296 ft | 530 kts | 173° |
| 2026-05-07 19:24 | -28.12355 | 149.64770 | 37292 ft | 530 kts | 173° |
| 2026-05-07 19:25 | -28.19406 | 149.67249 | 37293 ft | 529 kts | 174° |
| 2026-05-07 19:25 | -28.26471 | 149.69384 | 37297 ft | 523 kts | 177° |
| 2026-05-07 19:26 | -28.32345 | 149.70997 | 37300 ft | 523 kts | 177° |
| 2026-05-07 19:26 | -28.40588 | 149.73314 | 37299 ft | 524 kts | 176° |
| 2026-05-07 19:27 | -28.46510 | 149.75029 | 37299 ft | 524 kts | 176° |
| 2026-05-07 19:27 | -28.53575 | 149.77091 | 37299 ft | 524 kts | 176° |
| 2026-05-07 19:28 | -28.60641 | 149.79152 | 37299 ft | 524 kts | 176° |
| 2026-05-07 19:28 | -28.67708 | 149.81212 | 37298 ft | 523 kts | 176° |
| 2026-05-07 19:29 | -28.74768 | 149.83272 | 37296 ft | 523 kts | 176° |
| 2026-05-07 19:29 | -28.81822 | 149.85334 | 37295 ft | 523 kts | 176° |
| 2026-05-07 19:30 | -28.88886 | 149.87412 | 37303 ft | 523 kts | 176° |
| 2026-05-07 19:30 | -28.95937 | 149.89497 | 37289 ft | 522 kts | 176° |
| 2026-05-07 19:31 | -29.02978 | 149.91581 | 37291 ft | 522 kts | 176° |
| 2026-05-07 19:31 | -29.10008 | 149.93664 | 37295 ft | 521 kts | 176° |
| 2026-05-07 19:32 | -29.17037 | 149.95749 | 37296 ft | 521 kts | 176° |
| 2026-05-07 19:32 | -29.24059 | 149.97834 | 37293 ft | 520 kts | 176° |
| 2026-05-07 19:33 | -29.31065 | 149.99918 | 37293 ft | 520 kts | 176° |
| 2026-05-07 19:33 | -29.38078 | 150.02007 | 37295 ft | 519 kts | 176° |
| 2026-05-07 19:34 | -29.45069 | 150.04084 | 37291 ft | 519 kts | 176° |
| 2026-05-07 19:34 | -29.52060 | 150.06147 | 37292 ft | 518 kts | 176° |
| 2026-05-07 19:35 | -29.59055 | 150.08217 | 37291 ft | 518 kts | 176° |
| 2026-05-07 19:35 | -29.66036 | 150.10287 | 37290 ft | 518 kts | 176° |
| 2026-05-07 19:36 | -29.73009 | 150.12370 | 37292 ft | 517 kts | 175° |
| 2026-05-07 19:36 | -29.79973 | 150.14460 | 37284 ft | 517 kts | 175° |
| 2026-05-07 19:37 | -29.86928 | 150.16549 | 37294 ft | 516 kts | 175° |
| 2026-05-07 19:37 | -29.93882 | 150.18639 | 37290 ft | 516 kts | 175° |
| 2026-05-07 19:38 | -30.00825 | 150.20730 | 37281 ft | 515 kts | 175° |
| 2026-05-07 19:38 | -30.07764 | 150.22822 | 37288 ft | 515 kts | 175° |
| 2026-05-07 19:39 | -30.14698 | 150.24914 | 37292 ft | 514 kts | 175° |
| 2026-05-07 19:39 | -30.21613 | 150.27005 | 37303 ft | 514 kts | 175° |
| 2026-05-07 19:40 | -30.28578 | 150.29114 | 37292 ft | 513 kts | 175° |
| 2026-05-07 19:40 | -30.35477 | 150.31206 | 37293 ft | 512 kts | 175° |
| 2026-05-07 19:41 | -30.42330 | 150.33287 | 37303 ft | 511 kts | 175° |
| 2026-05-07 19:41 | -30.49219 | 150.35381 | 37305 ft | 511 kts | 175° |
| 2026-05-07 19:42 | -30.56095 | 150.37476 | 37307 ft | 510 kts | 175° |
| 2026-05-07 19:42 | -30.62967 | 150.39572 | 37295 ft | 509 kts | 175° |
| 2026-05-07 19:43 | -30.69812 | 150.41664 | 37305 ft | 508 kts | 175° |
| 2026-05-07 19:43 | -30.76652 | 150.43756 | 37305 ft | 507 kts | 174° |
| 2026-05-07 19:44 | -30.83461 | 150.45842 | 37299 ft | 507 kts | 174° |
| 2026-05-07 19:44 | -30.90308 | 150.47941 | 37304 ft | 507 kts | 174° |
| 2026-05-07 19:45 | -30.97093 | 150.50021 | 37293 ft | 507 kts | 174° |
| 2026-05-07 19:45 | -31.03923 | 150.52120 | 37300 ft | 507 kts | 174° |
| 2026-05-07 19:46 | -31.10746 | 150.54221 | 37281 ft | 507 kts | 174° |
| 2026-05-07 19:46 | -31.17525 | 150.56312 | 37289 ft | 507 kts | 174° |
| 2026-05-07 19:47 | -31.24397 | 150.58433 | 37286 ft | 507 kts | 174° |
| 2026-05-07 19:47 | -31.31180 | 150.60532 | 37290 ft | 507 kts | 174° |
| 2026-05-07 19:48 | -31.38013 | 150.62649 | 37289 ft | 507 kts | 174° |
| 2026-05-07 19:48 | -31.44882 | 150.64780 | 37289 ft | 507 kts | 174° |
| 2026-05-07 19:49 | -31.51656 | 150.66885 | 37284 ft | 507 kts | 174° |
| 2026-05-07 19:49 | -31.58477 | 150.69007 | 37283 ft | 506 kts | 174° |
| 2026-05-07 19:50 | -31.65280 | 150.71128 | 37278 ft | 506 kts | 174° |
| 2026-05-07 19:50 | -31.72081 | 150.73250 | 37282 ft | 506 kts | 174° |
| 2026-05-07 19:51 | -31.78879 | 150.75375 | 37281 ft | 505 kts | 174° |
| 2026-05-07 19:51 | -31.85672 | 150.77502 | 37270 ft | 505 kts | 173° |
| 2026-05-07 19:52 | -31.92460 | 150.79629 | 37270 ft | 504 kts | 173° |
| 2026-05-07 19:52 | -31.99251 | 150.81763 | 37267 ft | 504 kts | 173° |
| 2026-05-07 19:53 | -32.06055 | 150.83647 | 37259 ft | 495 kts | 180° |
| 2026-05-07 19:53 | -32.12861 | 150.84815 | 37256 ft | 493 kts | 181° |
| 2026-05-07 19:54 | -32.16277 | 150.85365 | 36879 ft | 499 kts | 181° |
| 2026-05-07 19:54 | -32.19735 | 150.85929 | 36117 ft | 503 kts | 180° |
| 2026-05-07 19:54 | -32.23199 | 150.86516 | 35320 ft | 503 kts | 179° |
| 2026-05-07 19:54 | -32.26620 | 150.87114 | 34474 ft | 494 kts | 179° |
| 2026-05-07 19:55 | -32.29983 | 150.87712 | 33635 ft | 481 kts | 178° |
| 2026-05-07 19:55 | -32.32149 | 150.88099 | 33238 ft | 470 kts | 179° |
| 2026-05-07 19:55 | -32.36356 | 150.88846 | 32473 ft | 450 kts | 179° |
| 2026-05-07 19:55 | -32.39410 | 150.89381 | 31919 ft | 437 kts | 179° |
| 2026-05-07 19:56 | -32.42385 | 150.89895 | 31413 ft | 432 kts | 179° |
| 2026-05-07 19:56 | -32.45388 | 150.90409 | 30901 ft | 439 kts | 179° |
| 2026-05-07 19:56 | -32.47450 | 150.90763 | 30551 ft | 448 kts | 179° |
| 2026-05-07 19:56 | -32.50561 | 150.91305 | 29931 ft | 454 kts | 179° |
| 2026-05-07 19:57 | -32.53685 | 150.91865 | 29290 ft | 452 kts | 179° |
| 2026-05-07 19:57 | -32.56741 | 150.92421 | 28702 ft | 447 kts | 179° |
| 2026-05-07 19:57 | -32.59805 | 150.92979 | 28116 ft | 442 kts | 179° |
| 2026-05-07 19:57 | -32.62837 | 150.93529 | 27533 ft | 438 kts | 179° |
| 2026-05-07 19:58 | -32.65797 | 150.94063 | 26976 ft | 434 kts | 179° |
| 2026-05-07 19:58 | -32.68833 | 150.94608 | 26408 ft | 430 kts | 179° |
| 2026-05-07 19:58 | -32.71792 | 150.95140 | 25849 ft | 426 kts | 179° |
| 2026-05-07 19:58 | -32.74652 | 150.95654 | 25298 ft | 423 kts | 179° |
| 2026-05-07 19:59 | -32.77616 | 150.96189 | 24738 ft | 419 kts | 179° |
| 2026-05-07 19:59 | -32.80498 | 150.96707 | 24171 ft | 417 kts | 179° |
| 2026-05-07 19:59 | -32.83355 | 150.97216 | 23577 ft | 414 kts | 179° |
| 2026-05-07 19:59 | -32.86195 | 150.97719 | 22944 ft | 411 kts | 179° |
| 2026-05-07 20:00 | -32.88970 | 150.98211 | 22379 ft | 406 kts | 179° |
| 2026-05-07 20:00 | -32.91751 | 150.98705 | 21822 ft | 402 kts | 179° |
| 2026-05-07 20:00 | -32.94501 | 150.99193 | 21272 ft | 398 kts | 178° |
| 2026-05-07 20:00 | -32.97259 | 150.99684 | 20719 ft | 394 kts | 178° |
| 2026-05-07 20:01 | -32.99967 | 151.00166 | 20176 ft | 391 kts | 178° |
| 2026-05-07 20:01 | -33.02652 | 151.00643 | 19648 ft | 388 kts | 178° |
| 2026-05-07 20:01 | -33.05276 | 151.01110 | 19122 ft | 385 kts | 178° |
| 2026-05-07 20:01 | -33.07921 | 151.01581 | 18592 ft | 382 kts | 177° |
| 2026-05-07 20:02 | -33.10535 | 151.02047 | 17991 ft | 381 kts | 177° |
| 2026-05-07 20:02 | -33.13159 | 151.02516 | 17420 ft | 377 kts | 177° |
| 2026-05-07 20:02 | -33.15742 | 151.02978 | 16879 ft | 374 kts | 177° |
| 2026-05-07 20:02 | -33.18300 | 151.03435 | 16338 ft | 370 kts | 177° |
| 2026-05-07 20:03 | -33.20840 | 151.03889 | 15817 ft | 367 kts | 177° |
| 2026-05-07 20:03 | -33.23357 | 151.04340 | 15309 ft | 363 kts | 178° |
| 2026-05-07 20:03 | -33.25850 | 151.04802 | 14794 ft | 361 kts | 177° |
| 2026-05-07 20:03 | -33.28324 | 151.05277 | 14281 ft | 358 kts | 177° |
| 2026-05-07 20:04 | -33.30771 | 151.05750 | 13762 ft | 355 kts | 177° |
| 2026-05-07 20:04 | -33.33195 | 151.06216 | 13200 ft | 352 kts | 177° |
| 2026-05-07 20:04 | -33.35579 | 151.06673 | 12681 ft | 349 kts | 176° |
| 2026-05-07 20:04 | -33.37961 | 151.07130 | 12185 ft | 345 kts | 177° |
| 2026-05-07 20:05 | -33.40323 | 151.07583 | 11698 ft | 341 kts | 176° |
| 2026-05-07 20:05 | -33.42661 | 151.08032 | 11213 ft | 338 kts | 176° |
| 2026-05-07 20:05 | -33.44971 | 151.08474 | 10820 ft | 333 kts | 176° |
| 2026-05-07 20:05 | -33.47212 | 151.08908 | 10671 ft | 321 kts | 176° |
| 2026-05-07 20:06 | -33.49394 | 151.09332 | 10460 ft | 311 kts | 176° |
| 2026-05-07 20:06 | -33.51494 | 151.09738 | 10317 ft | 300 kts | 177° |
| 2026-05-07 20:06 | -33.53513 | 151.10125 | 10186 ft | 289 kts | 177° |
| 2026-05-07 20:06 | -33.55471 | 151.10500 | 10056 ft | 280 kts | 177° |
| 2026-05-07 20:07 | -33.57370 | 151.10865 | 9823 ft | 272 kts | 177° |
| 2026-05-07 20:07 | -33.59229 | 151.11221 | 9470 ft | 271 kts | 176° |
| 2026-05-07 20:07 | -33.61060 | 151.11574 | 9126 ft | 262 kts | 176° |
| 2026-05-07 20:07 | -33.62800 | 151.11917 | 8932 ft | 245 kts | 176° |
| 2026-05-07 20:08 | -33.64449 | 151.12242 | 8763 ft | 238 kts | 176° |
| 2026-05-07 20:08 | -33.66136 | 151.12570 | 8627 ft | 250 kts | 176° |
| 2026-05-07 20:08 | -33.67868 | 151.12910 | 8469 ft | 253 kts | 175° |
| 2026-05-07 20:08 | -33.69596 | 151.13252 | 8303 ft | 251 kts | 175° |
| 2026-05-07 20:09 | -33.71310 | 151.13589 | 8148 ft | 248 kts | 175° |
| 2026-05-07 20:09 | -33.72998 | 151.13916 | 7997 ft | 246 kts | 175° |
| 2026-05-07 20:09 | -33.74688 | 151.14243 | 7860 ft | 243 kts | 175° |
| 2026-05-07 20:10 | -33.77989 | 151.14883 | 7570 ft | 240 kts | 175° |
| 2026-05-07 20:10 | -33.79634 | 151.15201 | 7428 ft | 239 kts | 175° |
| 2026-05-07 20:10 | -33.81272 | 151.15419 | 7271 ft | 234 kts | 187° |
| 2026-05-07 20:10 | -33.82873 | 151.15021 | 7171 ft | 239 kts | 196° |
| 2026-05-07 20:11 | -33.84510 | 151.14529 | 7027 ft | 243 kts | 195° |
| 2026-05-07 20:11 | -33.86169 | 151.14044 | 6867 ft | 242 kts | 194° |
| 2026-05-07 20:11 | -33.87807 | 151.13568 | 6731 ft | 241 kts | 194° |
| 2026-05-07 20:11 | -33.89437 | 151.13096 | 6582 ft | 240 kts | 194° |
| 2026-05-07 20:12 | -33.91056 | 151.12629 | 6438 ft | 239 kts | 194° |
| 2026-05-07 20:12 | -33.92668 | 151.12164 | 6285 ft | 238 kts | 194° |
| 2026-05-07 20:12 | -33.94270 | 151.11702 | 6147 ft | 236 kts | 194° |
| 2026-05-07 20:12 | -33.95867 | 151.11241 | 6004 ft | 235 kts | 194° |
| 2026-05-07 20:13 | -33.97463 | 151.10780 | 5863 ft | 234 kts | 194° |
| 2026-05-07 20:13 | -33.99046 | 151.10323 | 5726 ft | 234 kts | 194° |
| 2026-05-07 20:13 | -34.00625 | 151.09866 | 5588 ft | 233 kts | 194° |
| 2026-05-07 20:13 | -34.02208 | 151.09409 | 5446 ft | 233 kts | 194° |
| 2026-05-07 20:14 | -34.03791 | 151.08951 | 5324 ft | 233 kts | 194° |
| 2026-05-07 20:14 | -34.05369 | 151.08495 | 5172 ft | 234 kts | 194° |
| 2026-05-07 20:14 | -34.06961 | 151.08034 | 5027 ft | 235 kts | 194° |
| 2026-05-07 20:14 | -34.08557 | 151.07865 | 4870 ft | 232 kts | 173° |
| 2026-05-07 20:15 | -34.10133 | 151.08298 | 4754 ft | 235 kts | 171° |
| 2026-05-07 20:15 | -34.11752 | 151.08714 | 4627 ft | 240 kts | 171° |
| 2026-05-07 20:15 | -34.13396 | 151.09132 | 4463 ft | 241 kts | 171° |
| 2026-05-07 20:15 | -34.15020 | 151.09549 | 4325 ft | 241 kts | 171° |
| 2026-05-07 20:16 | -34.16654 | 151.09971 | 4179 ft | 241 kts | 171° |
| 2026-05-07 20:16 | -34.18293 | 151.10396 | 4029 ft | 240 kts | 172° |
| 2026-05-07 20:16 | -34.19920 | 151.10816 | 3884 ft | 239 kts | 172° |
| 2026-05-07 20:16 | -34.21515 | 151.11295 | 3762 ft | 234 kts | 161° |
| 2026-05-07 20:17 | -34.22798 | 151.12528 | 3764 ft | 246 kts | 130° |
| 2026-05-07 20:17 | -34.23439 | 151.14527 | 3699 ft | 267 kts | 100° |
| 2026-05-07 20:17 | -34.23353 | 151.16787 | 3618 ft | 272 kts | 86° |
| 2026-05-07 20:17 | -34.23042 | 151.19057 | 3491 ft | 273 kts | 83° |
| 2026-05-07 20:18 | -34.22632 | 151.21254 | 3344 ft | 265 kts | 71° |
| 2026-05-07 20:18 | -34.21692 | 151.23132 | 3190 ft | 258 kts | 48° |
| 2026-05-07 20:18 | -34.20232 | 151.24338 | 3040 ft | 258 kts | 15° |
| 2026-05-07 20:18 | -34.18493 | 151.24491 | 2923 ft | 247 kts | 343° |
| 2026-05-07 20:19 | -34.16924 | 151.23840 | 2792 ft | 229 kts | 335° |
| 2026-05-07 20:19 | -34.15480 | 151.23229 | 2618 ft | 215 kts | 336° |
| 2026-05-07 20:19 | -34.14064 | 151.22714 | 2507 ft | 210 kts | 339° |
| 2026-05-07 20:19 | -34.12685 | 151.22315 | 2501 ft | 199 kts | 341° |
| 2026-05-07 20:20 | -34.11329 | 151.21954 | 2420 ft | 198 kts | 341° |
| 2026-05-07 20:20 | -34.09999 | 151.21606 | 2321 ft | 193 kts | 341° |
| 2026-05-07 20:20 | -34.08697 | 151.21266 | 2215 ft | 190 kts | 341° |
| 2026-05-07 20:20 | -34.07411 | 151.20930 | 2097 ft | 185 kts | 340° |
| 2026-05-07 20:21 | -34.06177 | 151.20608 | 2069 ft | 180 kts | 339° |
| 2026-05-07 20:21 | -34.04942 | 151.20284 | 1798 ft | 180 kts | 339° |
| 2026-05-07 20:21 | -34.03739 | 151.19971 | 1541 ft | 171 kts | 340° |
| 2026-05-07 20:21 | -34.02618 | 151.19681 | 1310 ft | 158 kts | 339° |
| 2026-05-07 20:22 | -34.01579 | 151.19407 | 1151 ft | 152 kts | 339° |
| 2026-05-07 20:22 | -34.00541 | 151.19134 | 891 ft | 151 kts | 342° |
| 2026-05-07 20:22 | -33.99537 | 151.18875 | 684 ft | 145 kts | 341° |
| 2026-05-07 20:22 | -33.98562 | 151.18620 | 496 ft | 142 kts | 342° |
| 2026-05-07 20:23 | -33.97616 | 151.18377 | 288 ft | 136 kts | 342° |
| 2026-05-07 20:23 | -33.96701 | 151.18133 | 125 ft | 132 kts | 343° |
| 2026-05-07 20:23 | -33.95840 | 151.17906 | 27 ft | 118 kts | 348° |
| 2026-05-07 20:23 | -33.95193 | 151.17743 | 27 ft | 77 kts | 348° |
| 2026-05-07 20:24 | -33.94792 | 151.17641 | 28 ft | 52 kts | 347° |
| 2026-05-07 20:24 | -33.94537 | 151.17539 | 29 ft | 34 kts | 332° |
| 2026-05-07 20:24 | -33.94373 | 151.17401 | 30 ft | 16 kts | 316° |
| 2026-05-07 20:24 | -33.94311 | 151.17336 | 29 ft | 3 kts | 320° |
| 2026-05-07 20:25 | -33.94289 | 151.17315 | 29 ft | 5 kts | 326° |
| 2026-05-07 20:25 | -33.94249 | 151.17298 | 28 ft | 7 kts | 343° |
| 2026-05-07 20:25 | -33.94193 | 151.17281 | 27 ft | 9 kts | 346° |
| 2026-05-07 20:25 | -33.94120 | 151.17261 | 27 ft | 14 kts | 348° |
| 2026-05-07 20:26 | -33.94018 | 151.17233 | 28 ft | 9 kts | 338° |
| 2026-05-07 20:26 | -33.93988 | 151.17141 | 28 ft | 15 kts | 259° |
| 2026-05-07 20:26 | -33.94011 | 151.17057 | 29 ft | 5 kts | 253° |
| 2026-05-07 20:26 | -33.94013 | 151.17049 | 29 ft | 6 kts | 254° |
| 2026-05-07 20:27 | -33.94031 | 151.16969 | 30 ft | 22 kts | 255° |
| 2026-05-07 20:27 | -33.94052 | 151.16830 | 30 ft | 16 kts | 290° |
| 2026-05-07 20:27 | -33.93957 | 151.16781 | 29 ft | 13 kts | 345° |
| 2026-05-07 20:27 | -33.93917 | 151.16798 | 31 ft | 6 kts | 51° |
| 2026-05-07 20:28 | -33.93902 | 151.16835 | 29 ft | 0 kts | 69° |
| 2026-05-07 20:28 | -33.93900 | 151.16839 | 29 ft | 1 kts | 63° |
| 2026-05-07 20:28 | -33.93896 | 151.16851 | 31 ft | 2 kts | 71° |
| 2026-05-07 20:28 | -33.93893 | 151.16860 | 30 ft | 0 kts | 71° |
| 2026-05-07 20:29 | -33.93893 | 151.16862 | 30 ft | 1 kts | 71° |